<?xml version="1.0" encoding="UTF-8" standalone="no" ?>
<gpx xmlns="http://www.topografix.com/GPX/1/1" xmlns:xsi="http://www.w3.org/2001/XMLSchema-instance" xsi:schemaLocation="http://www.topografix.com/GPX/1/1 http://www.topografix.com/GPX/1/1/gpx.xsd" version="1.1" creator="VisuGPX - https://www.visugpx.com">
  <metadata>
    <name>Trail des coteaux Bellevue 2013</name>
    <desc><![CDATA[Trail des coteaux Bellevue 2013]]></desc>
  </metadata>
  <trk>
    <name><![CDATA[Trail]]></name>
    <cmt><![CDATA[Trail des coteaux]]></cmt>
    <trkseg>
      <trkpt lat="43.69662" lon="1.48007">
        <ele>211.62744140625</ele>
        <time>2014-01-04T14:00:18Z</time>
      </trkpt>
      <trkpt lat="43.69664" lon="1.48004">
        <ele>211.62744140625</ele>
        <time>2014-01-04T14:00:25Z</time>
      </trkpt>
      <trkpt lat="43.69666" lon="1.47994">
        <ele>212.58862304688</ele>
        <time>2014-01-04T14:00:32Z</time>
      </trkpt>
      <trkpt lat="43.69672" lon="1.47981">
        <ele>212.10803222656</ele>
        <time>2014-01-04T14:00:37Z</time>
      </trkpt>
      <trkpt lat="43.69676" lon="1.4797">
        <ele>213.55004882812</ele>
        <time>2014-01-04T14:00:41Z</time>
      </trkpt>
      <trkpt lat="43.69684" lon="1.47969">
        <ele>213.0693359375</ele>
        <time>2014-01-04T14:00:45Z</time>
      </trkpt>
      <trkpt lat="43.69693" lon="1.47976">
        <ele>214.99194335938</ele>
        <time>2014-01-04T14:00:50Z</time>
      </trkpt>
      <trkpt lat="43.69702" lon="1.47983">
        <ele>215.95324707031</ele>
        <time>2014-01-04T14:00:54Z</time>
      </trkpt>
      <trkpt lat="43.69704" lon="1.47984">
        <ele>215.95324707031</ele>
        <time>2014-01-04T14:00:55Z</time>
      </trkpt>
      <trkpt lat="43.6972" lon="1.47997">
        <ele>214.99194335938</ele>
        <time>2014-01-04T14:01:02Z</time>
      </trkpt>
      <trkpt lat="43.6973" lon="1.48004">
        <ele>215.95324707031</ele>
        <time>2014-01-04T14:01:07Z</time>
      </trkpt>
      <trkpt lat="43.69733" lon="1.48006">
        <ele>215.47265625</ele>
        <time>2014-01-04T14:01:08Z</time>
      </trkpt>
      <trkpt lat="43.6974" lon="1.4802">
        <ele>216.43395996094</ele>
        <time>2014-01-04T14:01:13Z</time>
      </trkpt>
      <trkpt lat="43.6974" lon="1.48027">
        <ele>216.91467285156</ele>
        <time>2014-01-04T14:01:15Z</time>
      </trkpt>
      <trkpt lat="43.69748" lon="1.48045">
        <ele>216.91467285156</ele>
        <time>2014-01-04T14:01:21Z</time>
      </trkpt>
      <trkpt lat="43.69751" lon="1.48054">
        <ele>218.35656738281</ele>
        <time>2014-01-04T14:01:24Z</time>
      </trkpt>
      <trkpt lat="43.69755" lon="1.48069">
        <ele>219.31799316406</ele>
        <time>2014-01-04T14:01:28Z</time>
      </trkpt>
      <trkpt lat="43.69757" lon="1.48076">
        <ele>219.79858398438</ele>
        <time>2014-01-04T14:01:30Z</time>
      </trkpt>
      <trkpt lat="43.69757" lon="1.48091">
        <ele>220.75988769531</ele>
        <time>2014-01-04T14:01:34Z</time>
      </trkpt>
      <trkpt lat="43.6976" lon="1.48114">
        <ele>220.27917480469</ele>
        <time>2014-01-04T14:01:40Z</time>
      </trkpt>
      <trkpt lat="43.69761" lon="1.48128">
        <ele>217.8759765625</ele>
        <time>2014-01-04T14:01:44Z</time>
      </trkpt>
      <trkpt lat="43.6976" lon="1.48135">
        <ele>216.43395996094</ele>
        <time>2014-01-04T14:01:46Z</time>
      </trkpt>
      <trkpt lat="43.69761" lon="1.48156">
        <ele>214.51123046875</ele>
        <time>2014-01-04T14:01:51Z</time>
      </trkpt>
      <trkpt lat="43.69759" lon="1.48176">
        <ele>214.03063964844</ele>
        <time>2014-01-04T14:01:56Z</time>
      </trkpt>
      <trkpt lat="43.69756" lon="1.48192">
        <ele>213.0693359375</ele>
        <time>2014-01-04T14:02:00Z</time>
      </trkpt>
      <trkpt lat="43.69753" lon="1.48215">
        <ele>212.10803222656</ele>
        <time>2014-01-04T14:02:06Z</time>
      </trkpt>
      <trkpt lat="43.69751" lon="1.48232">
        <ele>211.62744140625</ele>
        <time>2014-01-04T14:02:10Z</time>
      </trkpt>
      <trkpt lat="43.69748" lon="1.48257">
        <ele>209.70483398438</ele>
        <time>2014-01-04T14:02:16Z</time>
      </trkpt>
      <trkpt lat="43.69748" lon="1.48261">
        <ele>209.22412109375</ele>
        <time>2014-01-04T14:02:17Z</time>
      </trkpt>
      <trkpt lat="43.6975" lon="1.4828">
        <ele>207.78210449219</ele>
        <time>2014-01-04T14:02:22Z</time>
      </trkpt>
      <trkpt lat="43.6975" lon="1.48284">
        <ele>207.30139160156</ele>
        <time>2014-01-04T14:02:23Z</time>
      </trkpt>
      <trkpt lat="43.69755" lon="1.48301">
        <ele>206.34008789062</ele>
        <time>2014-01-04T14:02:28Z</time>
      </trkpt>
      <trkpt lat="43.69764" lon="1.48319">
        <ele>205.85949707031</ele>
        <time>2014-01-04T14:02:33Z</time>
      </trkpt>
      <trkpt lat="43.69771" lon="1.48335">
        <ele>204.89807128906</ele>
        <time>2014-01-04T14:02:37Z</time>
      </trkpt>
      <trkpt lat="43.69774" lon="1.48342">
        <ele>204.41748046875</ele>
        <time>2014-01-04T14:02:39Z</time>
      </trkpt>
      <trkpt lat="43.69782" lon="1.48364">
        <ele>204.89807128906</ele>
        <time>2014-01-04T14:02:45Z</time>
      </trkpt>
      <trkpt lat="43.69788" lon="1.48377">
        <ele>204.89807128906</ele>
        <time>2014-01-04T14:02:49Z</time>
      </trkpt>
      <trkpt lat="43.69794" lon="1.48396">
        <ele>206.34008789062</ele>
        <time>2014-01-04T14:02:54Z</time>
      </trkpt>
      <trkpt lat="43.698" lon="1.48416">
        <ele>207.30139160156</ele>
        <time>2014-01-04T14:02:59Z</time>
      </trkpt>
      <trkpt lat="43.69807" lon="1.48436">
        <ele>208.26281738281</ele>
        <time>2014-01-04T14:03:04Z</time>
      </trkpt>
      <trkpt lat="43.69814" lon="1.48453">
        <ele>206.34008789062</ele>
        <time>2014-01-04T14:03:08Z</time>
      </trkpt>
      <trkpt lat="43.69821" lon="1.48473">
        <ele>202.97546386719</ele>
        <time>2014-01-04T14:03:13Z</time>
      </trkpt>
      <trkpt lat="43.69821" lon="1.48477">
        <ele>202.49487304688</ele>
        <time>2014-01-04T14:03:14Z</time>
      </trkpt>
      <trkpt lat="43.69824" lon="1.48489">
        <ele>202.49487304688</ele>
        <time>2014-01-04T14:03:17Z</time>
      </trkpt>
      <trkpt lat="43.69828" lon="1.48504">
        <ele>202.97546386719</ele>
        <time>2014-01-04T14:03:21Z</time>
      </trkpt>
      <trkpt lat="43.69832" lon="1.48516">
        <ele>202.97546386719</ele>
        <time>2014-01-04T14:03:24Z</time>
      </trkpt>
      <trkpt lat="43.69839" lon="1.48538">
        <ele>201.53356933594</ele>
        <time>2014-01-04T14:03:30Z</time>
      </trkpt>
      <trkpt lat="43.69848" lon="1.48552">
        <ele>200.09167480469</ele>
        <time>2014-01-04T14:03:34Z</time>
      </trkpt>
      <trkpt lat="43.69852" lon="1.48564">
        <ele>197.68823242188</ele>
        <time>2014-01-04T14:03:38Z</time>
      </trkpt>
      <trkpt lat="43.6986" lon="1.48578">
        <ele>196.72692871094</ele>
        <time>2014-01-04T14:03:42Z</time>
      </trkpt>
      <trkpt lat="43.69868" lon="1.48592">
        <ele>195.28491210938</ele>
        <time>2014-01-04T14:03:46Z</time>
      </trkpt>
      <trkpt lat="43.69876" lon="1.48609">
        <ele>194.80432128906</ele>
        <time>2014-01-04T14:03:51Z</time>
      </trkpt>
      <trkpt lat="43.69883" lon="1.48622">
        <ele>194.80432128906</ele>
        <time>2014-01-04T14:03:55Z</time>
      </trkpt>
      <trkpt lat="43.69885" lon="1.48625">
        <ele>193.84301757812</ele>
        <time>2014-01-04T14:03:56Z</time>
      </trkpt>
      <trkpt lat="43.69899" lon="1.48644">
        <ele>193.84301757812</ele>
        <time>2014-01-04T14:04:02Z</time>
      </trkpt>
      <trkpt lat="43.69907" lon="1.48653">
        <ele>193.3623046875</ele>
        <time>2014-01-04T14:04:05Z</time>
      </trkpt>
      <trkpt lat="43.69915" lon="1.48665">
        <ele>192.88171386719</ele>
        <time>2014-01-04T14:04:09Z</time>
      </trkpt>
      <trkpt lat="43.69928" lon="1.4868">
        <ele>193.3623046875</ele>
        <time>2014-01-04T14:04:14Z</time>
      </trkpt>
      <trkpt lat="43.69937" lon="1.48693">
        <ele>193.3623046875</ele>
        <time>2014-01-04T14:04:19Z</time>
      </trkpt>
      <trkpt lat="43.69943" lon="1.48702">
        <ele>193.3623046875</ele>
        <time>2014-01-04T14:04:22Z</time>
      </trkpt>
      <trkpt lat="43.69953" lon="1.48704">
        <ele>192.40112304688</ele>
        <time>2014-01-04T14:04:26Z</time>
      </trkpt>
      <trkpt lat="43.69955" lon="1.48704">
        <ele>192.40112304688</ele>
        <time>2014-01-04T14:04:28Z</time>
      </trkpt>
      <trkpt lat="43.69962" lon="1.48698">
        <ele>189.51696777344</ele>
        <time>2014-01-04T14:04:32Z</time>
      </trkpt>
      <trkpt lat="43.69964" lon="1.48695">
        <ele>188.55578613281</ele>
        <time>2014-01-04T14:04:33Z</time>
      </trkpt>
      <trkpt lat="43.69979" lon="1.48685">
        <ele>185.67175292969</ele>
        <time>2014-01-04T14:04:39Z</time>
      </trkpt>
      <trkpt lat="43.69995" lon="1.4868">
        <ele>183.26843261719</ele>
        <time>2014-01-04T14:04:44Z</time>
      </trkpt>
      <trkpt lat="43.70008" lon="1.48673">
        <ele>182.30712890625</ele>
        <time>2014-01-04T14:04:49Z</time>
      </trkpt>
      <trkpt lat="43.70017" lon="1.48665">
        <ele>181.34582519531</ele>
        <time>2014-01-04T14:04:53Z</time>
      </trkpt>
      <trkpt lat="43.70028" lon="1.4866">
        <ele>180.865234375</ele>
        <time>2014-01-04T14:04:57Z</time>
      </trkpt>
      <trkpt lat="43.70038" lon="1.48654">
        <ele>180.38452148438</ele>
        <time>2014-01-04T14:05:01Z</time>
      </trkpt>
      <trkpt lat="43.70056" lon="1.48646">
        <ele>180.865234375</ele>
        <time>2014-01-04T14:05:07Z</time>
      </trkpt>
      <trkpt lat="43.70067" lon="1.48643">
        <ele>180.38452148438</ele>
        <time>2014-01-04T14:05:11Z</time>
      </trkpt>
      <trkpt lat="43.70079" lon="1.48643">
        <ele>180.38452148438</ele>
        <time>2014-01-04T14:05:15Z</time>
      </trkpt>
      <trkpt lat="43.70095" lon="1.48644">
        <ele>178.94262695312</ele>
        <time>2014-01-04T14:05:20Z</time>
      </trkpt>
      <trkpt lat="43.70114" lon="1.48645">
        <ele>177.98120117188</ele>
        <time>2014-01-04T14:05:26Z</time>
      </trkpt>
      <trkpt lat="43.70124" lon="1.48646">
        <ele>177.50061035156</ele>
        <time>2014-01-04T14:05:30Z</time>
      </trkpt>
      <trkpt lat="43.70139" lon="1.48646">
        <ele>176.53930664062</ele>
        <time>2014-01-04T14:05:35Z</time>
      </trkpt>
      <trkpt lat="43.70149" lon="1.48645">
        <ele>176.05859375</ele>
        <time>2014-01-04T14:05:39Z</time>
      </trkpt>
      <trkpt lat="43.70162" lon="1.48634">
        <ele>176.53930664062</ele>
        <time>2014-01-04T14:05:44Z</time>
      </trkpt>
      <trkpt lat="43.70171" lon="1.48624">
        <ele>177.02001953125</ele>
        <time>2014-01-04T14:05:48Z</time>
      </trkpt>
      <trkpt lat="43.70183" lon="1.4861">
        <ele>177.02001953125</ele>
        <time>2014-01-04T14:05:53Z</time>
      </trkpt>
      <trkpt lat="43.70194" lon="1.48601">
        <ele>177.02001953125</ele>
        <time>2014-01-04T14:05:57Z</time>
      </trkpt>
      <trkpt lat="43.70205" lon="1.48585">
        <ele>177.02001953125</ele>
        <time>2014-01-04T14:06:02Z</time>
      </trkpt>
      <trkpt lat="43.70217" lon="1.48572">
        <ele>176.53930664062</ele>
        <time>2014-01-04T14:06:07Z</time>
      </trkpt>
      <trkpt lat="43.70224" lon="1.48565">
        <ele>176.05859375</ele>
        <time>2014-01-04T14:06:10Z</time>
      </trkpt>
      <trkpt lat="43.70237" lon="1.48555">
        <ele>175.57788085938</ele>
        <time>2014-01-04T14:06:15Z</time>
      </trkpt>
      <trkpt lat="43.7024" lon="1.48553">
        <ele>175.57788085938</ele>
        <time>2014-01-04T14:06:16Z</time>
      </trkpt>
      <trkpt lat="43.70249" lon="1.48542">
        <ele>174.61657714844</ele>
        <time>2014-01-04T14:06:20Z</time>
      </trkpt>
      <trkpt lat="43.70261" lon="1.4853">
        <ele>172.69396972656</ele>
        <time>2014-01-04T14:06:26Z</time>
      </trkpt>
      <trkpt lat="43.70276" lon="1.48516">
        <ele>171.73266601562</ele>
        <time>2014-01-04T14:06:32Z</time>
      </trkpt>
      <trkpt lat="43.70284" lon="1.48508">
        <ele>171.25207519531</ele>
        <time>2014-01-04T14:06:35Z</time>
      </trkpt>
      <trkpt lat="43.70294" lon="1.48503">
        <ele>170.29064941406</ele>
        <time>2014-01-04T14:06:39Z</time>
      </trkpt>
      <trkpt lat="43.70308" lon="1.48505">
        <ele>169.81005859375</ele>
        <time>2014-01-04T14:06:44Z</time>
      </trkpt>
      <trkpt lat="43.70323" lon="1.48508">
        <ele>169.32946777344</ele>
        <time>2014-01-04T14:06:49Z</time>
      </trkpt>
      <trkpt lat="43.70338" lon="1.48499">
        <ele>168.84875488281</ele>
        <time>2014-01-04T14:06:55Z</time>
      </trkpt>
      <trkpt lat="43.70351" lon="1.48483">
        <ele>168.84875488281</ele>
        <time>2014-01-04T14:07:00Z</time>
      </trkpt>
      <trkpt lat="43.70363" lon="1.48477">
        <ele>167.88732910156</ele>
        <time>2014-01-04T14:07:05Z</time>
      </trkpt>
      <trkpt lat="43.70377" lon="1.48469">
        <ele>167.88732910156</ele>
        <time>2014-01-04T14:07:10Z</time>
      </trkpt>
      <trkpt lat="43.7039" lon="1.4846">
        <ele>166.4453125</ele>
        <time>2014-01-04T14:07:15Z</time>
      </trkpt>
      <trkpt lat="43.70399" lon="1.48457">
        <ele>165.96472167969</ele>
        <time>2014-01-04T14:07:19Z</time>
      </trkpt>
      <trkpt lat="43.70408" lon="1.48451">
        <ele>165.48413085938</ele>
        <time>2014-01-04T14:07:23Z</time>
      </trkpt>
      <trkpt lat="43.70414" lon="1.48443">
        <ele>164.04211425781</ele>
        <time>2014-01-04T14:07:27Z</time>
      </trkpt>
      <trkpt lat="43.70418" lon="1.48439">
        <ele>164.52270507812</ele>
        <time>2014-01-04T14:07:30Z</time>
      </trkpt>
      <trkpt lat="43.70425" lon="1.48431">
        <ele>169.32946777344</ele>
        <time>2014-01-04T14:07:36Z</time>
      </trkpt>
      <trkpt lat="43.70434" lon="1.48424">
        <ele>170.29064941406</ele>
        <time>2014-01-04T14:07:40Z</time>
      </trkpt>
      <trkpt lat="43.70445" lon="1.4841">
        <ele>168.36804199219</ele>
        <time>2014-01-04T14:07:46Z</time>
      </trkpt>
      <trkpt lat="43.70456" lon="1.48406">
        <ele>169.81005859375</ele>
        <time>2014-01-04T14:07:52Z</time>
      </trkpt>
      <trkpt lat="43.70461" lon="1.48404">
        <ele>169.81005859375</ele>
        <time>2014-01-04T14:07:55Z</time>
      </trkpt>
      <trkpt lat="43.7048" lon="1.48395">
        <ele>170.77136230469</ele>
        <time>2014-01-04T14:08:01Z</time>
      </trkpt>
      <trkpt lat="43.70482" lon="1.48393">
        <ele>170.77136230469</ele>
        <time>2014-01-04T14:08:02Z</time>
      </trkpt>
      <trkpt lat="43.70488" lon="1.48383">
        <ele>167.40673828125</ele>
        <time>2014-01-04T14:08:07Z</time>
      </trkpt>
      <trkpt lat="43.70489" lon="1.48377">
        <ele>165.48413085938</ele>
        <time>2014-01-04T14:08:09Z</time>
      </trkpt>
      <trkpt lat="43.70491" lon="1.48358">
        <ele>163.08081054688</ele>
        <time>2014-01-04T14:08:15Z</time>
      </trkpt>
      <trkpt lat="43.70488" lon="1.48342">
        <ele>165.96472167969</ele>
        <time>2014-01-04T14:08:20Z</time>
      </trkpt>
      <trkpt lat="43.70483" lon="1.48325">
        <ele>166.92602539062</ele>
        <time>2014-01-04T14:08:25Z</time>
      </trkpt>
      <trkpt lat="43.70478" lon="1.48308">
        <ele>168.84875488281</ele>
        <time>2014-01-04T14:08:30Z</time>
      </trkpt>
      <trkpt lat="43.70477" lon="1.48289">
        <ele>166.4453125</ele>
        <time>2014-01-04T14:08:35Z</time>
      </trkpt>
      <trkpt lat="43.70476" lon="1.48277">
        <ele>166.92602539062</ele>
        <time>2014-01-04T14:08:39Z</time>
      </trkpt>
      <trkpt lat="43.70475" lon="1.48263">
        <ele>167.88732910156</ele>
        <time>2014-01-04T14:08:43Z</time>
      </trkpt>
      <trkpt lat="43.70475" lon="1.48243">
        <ele>169.32946777344</ele>
        <time>2014-01-04T14:08:48Z</time>
      </trkpt>
      <trkpt lat="43.70476" lon="1.48236">
        <ele>170.77136230469</ele>
        <time>2014-01-04T14:08:50Z</time>
      </trkpt>
      <trkpt lat="43.70473" lon="1.48224">
        <ele>171.73266601562</ele>
        <time>2014-01-04T14:08:54Z</time>
      </trkpt>
      <trkpt lat="43.70466" lon="1.48205">
        <ele>173.6552734375</ele>
        <time>2014-01-04T14:09:00Z</time>
      </trkpt>
      <trkpt lat="43.70464" lon="1.48198">
        <ele>174.13586425781</ele>
        <time>2014-01-04T14:09:02Z</time>
      </trkpt>
      <trkpt lat="43.70461" lon="1.48179">
        <ele>173.6552734375</ele>
        <time>2014-01-04T14:09:08Z</time>
      </trkpt>
      <trkpt lat="43.70458" lon="1.48163">
        <ele>174.13586425781</ele>
        <time>2014-01-04T14:09:12Z</time>
      </trkpt>
      <trkpt lat="43.70456" lon="1.48148">
        <ele>176.05859375</ele>
        <time>2014-01-04T14:09:17Z</time>
      </trkpt>
      <trkpt lat="43.70454" lon="1.48133">
        <ele>176.53930664062</ele>
        <time>2014-01-04T14:09:22Z</time>
      </trkpt>
      <trkpt lat="43.70452" lon="1.48117">
        <ele>175.57788085938</ele>
        <time>2014-01-04T14:09:27Z</time>
      </trkpt>
      <trkpt lat="43.70449" lon="1.48106">
        <ele>175.09729003906</ele>
        <time>2014-01-04T14:09:31Z</time>
      </trkpt>
      <trkpt lat="43.70444" lon="1.48096">
        <ele>175.57788085938</ele>
        <time>2014-01-04T14:09:35Z</time>
      </trkpt>
      <trkpt lat="43.70435" lon="1.48084">
        <ele>177.02001953125</ele>
        <time>2014-01-04T14:09:40Z</time>
      </trkpt>
      <trkpt lat="43.70425" lon="1.48071">
        <ele>177.50061035156</ele>
        <time>2014-01-04T14:09:46Z</time>
      </trkpt>
      <trkpt lat="43.70423" lon="1.48069">
        <ele>177.98120117188</ele>
        <time>2014-01-04T14:09:47Z</time>
      </trkpt>
      <trkpt lat="43.70411" lon="1.48061">
        <ele>179.90380859375</ele>
        <time>2014-01-04T14:09:53Z</time>
      </trkpt>
      <trkpt lat="43.70396" lon="1.48057">
        <ele>180.38452148438</ele>
        <time>2014-01-04T14:09:59Z</time>
      </trkpt>
      <trkpt lat="43.70385" lon="1.48056">
        <ele>181.34582519531</ele>
        <time>2014-01-04T14:10:03Z</time>
      </trkpt>
      <trkpt lat="43.70377" lon="1.48055">
        <ele>181.34582519531</ele>
        <time>2014-01-04T14:10:06Z</time>
      </trkpt>
      <trkpt lat="43.70367" lon="1.48053">
        <ele>180.38452148438</ele>
        <time>2014-01-04T14:10:11Z</time>
      </trkpt>
      <trkpt lat="43.70355" lon="1.48047">
        <ele>178.94262695312</ele>
        <time>2014-01-04T14:10:16Z</time>
      </trkpt>
      <trkpt lat="43.7034" lon="1.48041">
        <ele>177.02001953125</ele>
        <time>2014-01-04T14:10:23Z</time>
      </trkpt>
      <trkpt lat="43.70333" lon="1.48039">
        <ele>177.02001953125</ele>
        <time>2014-01-04T14:10:26Z</time>
      </trkpt>
      <trkpt lat="43.70321" lon="1.48036">
        <ele>178.4619140625</ele>
        <time>2014-01-04T14:10:32Z</time>
      </trkpt>
      <trkpt lat="43.70308" lon="1.48034">
        <ele>176.53930664062</ele>
        <time>2014-01-04T14:10:36Z</time>
      </trkpt>
      <trkpt lat="43.70298" lon="1.48035">
        <ele>176.53930664062</ele>
        <time>2014-01-04T14:10:40Z</time>
      </trkpt>
      <trkpt lat="43.70287" lon="1.48031">
        <ele>176.53930664062</ele>
        <time>2014-01-04T14:10:45Z</time>
      </trkpt>
      <trkpt lat="43.70279" lon="1.4802">
        <ele>177.98120117188</ele>
        <time>2014-01-04T14:10:50Z</time>
      </trkpt>
      <trkpt lat="43.70274" lon="1.48003">
        <ele>176.05859375</ele>
        <time>2014-01-04T14:10:55Z</time>
      </trkpt>
      <trkpt lat="43.70269" lon="1.47987">
        <ele>176.53930664062</ele>
        <time>2014-01-04T14:11:00Z</time>
      </trkpt>
      <trkpt lat="43.70264" lon="1.47974">
        <ele>177.98120117188</ele>
        <time>2014-01-04T14:11:04Z</time>
      </trkpt>
      <trkpt lat="43.7026" lon="1.47961">
        <ele>178.4619140625</ele>
        <time>2014-01-04T14:11:08Z</time>
      </trkpt>
      <trkpt lat="43.70256" lon="1.47948">
        <ele>179.90380859375</ele>
        <time>2014-01-04T14:11:12Z</time>
      </trkpt>
      <trkpt lat="43.7025" lon="1.47937">
        <ele>181.82641601562</ele>
        <time>2014-01-04T14:11:16Z</time>
      </trkpt>
      <trkpt lat="43.70244" lon="1.47922">
        <ele>183.26843261719</ele>
        <time>2014-01-04T14:11:21Z</time>
      </trkpt>
      <trkpt lat="43.7024" lon="1.47912">
        <ele>184.22985839844</ele>
        <time>2014-01-04T14:11:25Z</time>
      </trkpt>
      <trkpt lat="43.70236" lon="1.47895">
        <ele>185.19116210938</ele>
        <time>2014-01-04T14:11:30Z</time>
      </trkpt>
      <trkpt lat="43.70234" lon="1.47873">
        <ele>185.19116210938</ele>
        <time>2014-01-04T14:11:36Z</time>
      </trkpt>
      <trkpt lat="43.7023" lon="1.47862">
        <ele>184.71057128906</ele>
        <time>2014-01-04T14:11:39Z</time>
      </trkpt>
      <trkpt lat="43.70227" lon="1.47846">
        <ele>185.19116210938</ele>
        <time>2014-01-04T14:11:44Z</time>
      </trkpt>
      <trkpt lat="43.70225" lon="1.47834">
        <ele>185.19116210938</ele>
        <time>2014-01-04T14:11:48Z</time>
      </trkpt>
      <trkpt lat="43.70222" lon="1.47821">
        <ele>185.67175292969</ele>
        <time>2014-01-04T14:11:52Z</time>
      </trkpt>
      <trkpt lat="43.70221" lon="1.4781">
        <ele>185.19116210938</ele>
        <time>2014-01-04T14:11:56Z</time>
      </trkpt>
      <trkpt lat="43.70221" lon="1.47801">
        <ele>185.19116210938</ele>
        <time>2014-01-04T14:12:00Z</time>
      </trkpt>
      <trkpt lat="43.70219" lon="1.47796">
        <ele>185.67175292969</ele>
        <time>2014-01-04T14:12:03Z</time>
      </trkpt>
      <trkpt lat="43.70218" lon="1.47791">
        <ele>185.67175292969</ele>
        <time>2014-01-04T14:12:06Z</time>
      </trkpt>
      <trkpt lat="43.70213" lon="1.47774">
        <ele>189.51696777344</ele>
        <time>2014-01-04T14:12:13Z</time>
      </trkpt>
      <trkpt lat="43.70211" lon="1.47766">
        <ele>189.51696777344</ele>
        <time>2014-01-04T14:12:16Z</time>
      </trkpt>
      <trkpt lat="43.70209" lon="1.47758">
        <ele>189.51696777344</ele>
        <time>2014-01-04T14:12:20Z</time>
      </trkpt>
      <trkpt lat="43.70204" lon="1.47744">
        <ele>189.51696777344</ele>
        <time>2014-01-04T14:12:25Z</time>
      </trkpt>
      <trkpt lat="43.70197" lon="1.47725">
        <ele>189.99768066406</ele>
        <time>2014-01-04T14:12:31Z</time>
      </trkpt>
      <trkpt lat="43.70192" lon="1.47713">
        <ele>190.958984375</ele>
        <time>2014-01-04T14:12:36Z</time>
      </trkpt>
      <trkpt lat="43.70189" lon="1.47703">
        <ele>192.40112304688</ele>
        <time>2014-01-04T14:12:40Z</time>
      </trkpt>
      <trkpt lat="43.70182" lon="1.47693">
        <ele>193.84301757812</ele>
        <time>2014-01-04T14:12:45Z</time>
      </trkpt>
      <trkpt lat="43.70176" lon="1.47683">
        <ele>193.3623046875</ele>
        <time>2014-01-04T14:12:49Z</time>
      </trkpt>
      <trkpt lat="43.70173" lon="1.47679">
        <ele>193.3623046875</ele>
        <time>2014-01-04T14:12:51Z</time>
      </trkpt>
      <trkpt lat="43.70164" lon="1.47666">
        <ele>194.80432128906</ele>
        <time>2014-01-04T14:12:57Z</time>
      </trkpt>
      <trkpt lat="43.70158" lon="1.47656">
        <ele>195.765625</ele>
        <time>2014-01-04T14:13:02Z</time>
      </trkpt>
      <trkpt lat="43.70151" lon="1.47648">
        <ele>197.20751953125</ele>
        <time>2014-01-04T14:13:07Z</time>
      </trkpt>
      <trkpt lat="43.70148" lon="1.47636">
        <ele>195.28491210938</ele>
        <time>2014-01-04T14:13:13Z</time>
      </trkpt>
      <trkpt lat="43.70153" lon="1.47628">
        <ele>196.24633789062</ele>
        <time>2014-01-04T14:13:16Z</time>
      </trkpt>
      <trkpt lat="43.70167" lon="1.47617">
        <ele>194.32373046875</ele>
        <time>2014-01-04T14:13:22Z</time>
      </trkpt>
      <trkpt lat="43.70171" lon="1.47615">
        <ele>194.80432128906</ele>
        <time>2014-01-04T14:13:24Z</time>
      </trkpt>
      <trkpt lat="43.70179" lon="1.4761">
        <ele>193.84301757812</ele>
        <time>2014-01-04T14:13:28Z</time>
      </trkpt>
      <trkpt lat="43.70195" lon="1.47608">
        <ele>193.3623046875</ele>
        <time>2014-01-04T14:13:34Z</time>
      </trkpt>
      <trkpt lat="43.70204" lon="1.47612">
        <ele>193.3623046875</ele>
        <time>2014-01-04T14:13:38Z</time>
      </trkpt>
      <trkpt lat="43.70215" lon="1.47619">
        <ele>195.765625</ele>
        <time>2014-01-04T14:13:43Z</time>
      </trkpt>
      <trkpt lat="43.70226" lon="1.47625">
        <ele>198.1689453125</ele>
        <time>2014-01-04T14:13:48Z</time>
      </trkpt>
      <trkpt lat="43.70235" lon="1.47632">
        <ele>199.61083984375</ele>
        <time>2014-01-04T14:13:52Z</time>
      </trkpt>
      <trkpt lat="43.70247" lon="1.47642">
        <ele>200.09167480469</ele>
        <time>2014-01-04T14:13:57Z</time>
      </trkpt>
      <trkpt lat="43.70259" lon="1.47651">
        <ele>201.53356933594</ele>
        <time>2014-01-04T14:14:02Z</time>
      </trkpt>
      <trkpt lat="43.70265" lon="1.47656">
        <ele>202.01428222656</ele>
        <time>2014-01-04T14:14:05Z</time>
      </trkpt>
      <trkpt lat="43.70274" lon="1.47662">
        <ele>202.49487304688</ele>
        <time>2014-01-04T14:14:09Z</time>
      </trkpt>
      <trkpt lat="43.70285" lon="1.47669">
        <ele>202.01428222656</ele>
        <time>2014-01-04T14:14:13Z</time>
      </trkpt>
      <trkpt lat="43.70295" lon="1.47675">
        <ele>201.05285644531</ele>
        <time>2014-01-04T14:14:17Z</time>
      </trkpt>
      <trkpt lat="43.7031" lon="1.47682">
        <ele>201.53356933594</ele>
        <time>2014-01-04T14:14:22Z</time>
      </trkpt>
      <trkpt lat="43.70321" lon="1.47686">
        <ele>199.61083984375</ele>
        <time>2014-01-04T14:14:27Z</time>
      </trkpt>
      <trkpt lat="43.70322" lon="1.47686">
        <ele>199.61083984375</ele>
        <time>2014-01-04T14:14:28Z</time>
      </trkpt>
      <trkpt lat="43.70328" lon="1.47692">
        <ele>198.64953613281</ele>
        <time>2014-01-04T14:14:32Z</time>
      </trkpt>
      <trkpt lat="43.70347" lon="1.47703">
        <ele>195.765625</ele>
        <time>2014-01-04T14:14:39Z</time>
      </trkpt>
      <trkpt lat="43.70361" lon="1.47711">
        <ele>192.88171386719</ele>
        <time>2014-01-04T14:14:44Z</time>
      </trkpt>
      <trkpt lat="43.70376" lon="1.47719">
        <ele>189.99768066406</ele>
        <time>2014-01-04T14:14:50Z</time>
      </trkpt>
      <trkpt lat="43.70388" lon="1.47724">
        <ele>188.07507324219</ele>
        <time>2014-01-04T14:14:55Z</time>
      </trkpt>
      <trkpt lat="43.70403" lon="1.47731">
        <ele>188.55578613281</ele>
        <time>2014-01-04T14:15:00Z</time>
      </trkpt>
      <trkpt lat="43.70419" lon="1.47738">
        <ele>189.99768066406</ele>
        <time>2014-01-04T14:15:05Z</time>
      </trkpt>
      <trkpt lat="43.70432" lon="1.47742">
        <ele>191.92028808594</ele>
        <time>2014-01-04T14:15:09Z</time>
      </trkpt>
      <trkpt lat="43.70449" lon="1.47752">
        <ele>192.40112304688</ele>
        <time>2014-01-04T14:15:15Z</time>
      </trkpt>
      <trkpt lat="43.7046" lon="1.47758">
        <ele>191.92028808594</ele>
        <time>2014-01-04T14:15:19Z</time>
      </trkpt>
      <trkpt lat="43.70475" lon="1.47765">
        <ele>193.3623046875</ele>
        <time>2014-01-04T14:15:24Z</time>
      </trkpt>
      <trkpt lat="43.7049" lon="1.47771">
        <ele>193.84301757812</ele>
        <time>2014-01-04T14:15:29Z</time>
      </trkpt>
      <trkpt lat="43.70503" lon="1.47774">
        <ele>194.32373046875</ele>
        <time>2014-01-04T14:15:34Z</time>
      </trkpt>
      <trkpt lat="43.70515" lon="1.47774">
        <ele>193.3623046875</ele>
        <time>2014-01-04T14:15:38Z</time>
      </trkpt>
      <trkpt lat="43.70528" lon="1.47776">
        <ele>191.43957519531</ele>
        <time>2014-01-04T14:15:43Z</time>
      </trkpt>
      <trkpt lat="43.70541" lon="1.47779">
        <ele>189.99768066406</ele>
        <time>2014-01-04T14:15:48Z</time>
      </trkpt>
      <trkpt lat="43.70555" lon="1.47782">
        <ele>189.51696777344</ele>
        <time>2014-01-04T14:15:53Z</time>
      </trkpt>
      <trkpt lat="43.70568" lon="1.47785">
        <ele>189.03637695312</ele>
        <time>2014-01-04T14:15:58Z</time>
      </trkpt>
      <trkpt lat="43.70583" lon="1.47787">
        <ele>188.07507324219</ele>
        <time>2014-01-04T14:16:03Z</time>
      </trkpt>
      <trkpt lat="43.70599" lon="1.47787">
        <ele>186.63317871094</ele>
        <time>2014-01-04T14:16:09Z</time>
      </trkpt>
      <trkpt lat="43.70611" lon="1.47789">
        <ele>184.71057128906</ele>
        <time>2014-01-04T14:16:13Z</time>
      </trkpt>
      <trkpt lat="43.70628" lon="1.47793">
        <ele>181.82641601562</ele>
        <time>2014-01-04T14:16:19Z</time>
      </trkpt>
      <trkpt lat="43.70644" lon="1.47794">
        <ele>181.34582519531</ele>
        <time>2014-01-04T14:16:24Z</time>
      </trkpt>
      <trkpt lat="43.70662" lon="1.47797">
        <ele>182.78784179688</ele>
        <time>2014-01-04T14:16:30Z</time>
      </trkpt>
      <trkpt lat="43.70679" lon="1.47802">
        <ele>182.78784179688</ele>
        <time>2014-01-04T14:16:36Z</time>
      </trkpt>
      <trkpt lat="43.70696" lon="1.47805">
        <ele>182.78784179688</ele>
        <time>2014-01-04T14:16:42Z</time>
      </trkpt>
      <trkpt lat="43.70709" lon="1.47809">
        <ele>184.22985839844</ele>
        <time>2014-01-04T14:16:47Z</time>
      </trkpt>
      <trkpt lat="43.7072" lon="1.47813">
        <ele>184.71057128906</ele>
        <time>2014-01-04T14:16:51Z</time>
      </trkpt>
      <trkpt lat="43.70739" lon="1.47821">
        <ele>186.15246582031</ele>
        <time>2014-01-04T14:16:58Z</time>
      </trkpt>
      <trkpt lat="43.70754" lon="1.47829">
        <ele>186.63317871094</ele>
        <time>2014-01-04T14:17:04Z</time>
      </trkpt>
      <trkpt lat="43.70768" lon="1.47837">
        <ele>185.67175292969</ele>
        <time>2014-01-04T14:17:10Z</time>
      </trkpt>
      <trkpt lat="43.70777" lon="1.47843">
        <ele>184.71057128906</ele>
        <time>2014-01-04T14:17:14Z</time>
      </trkpt>
      <trkpt lat="43.70791" lon="1.47849">
        <ele>183.26843261719</ele>
        <time>2014-01-04T14:17:19Z</time>
      </trkpt>
      <trkpt lat="43.70804" lon="1.47857">
        <ele>183.26843261719</ele>
        <time>2014-01-04T14:17:24Z</time>
      </trkpt>
      <trkpt lat="43.70818" lon="1.47862">
        <ele>183.26843261719</ele>
        <time>2014-01-04T14:17:29Z</time>
      </trkpt>
      <trkpt lat="43.70834" lon="1.47862">
        <ele>182.30712890625</ele>
        <time>2014-01-04T14:17:34Z</time>
      </trkpt>
      <trkpt lat="43.70845" lon="1.47856">
        <ele>182.30712890625</ele>
        <time>2014-01-04T14:17:38Z</time>
      </trkpt>
      <trkpt lat="43.70856" lon="1.47848">
        <ele>182.78784179688</ele>
        <time>2014-01-04T14:17:42Z</time>
      </trkpt>
      <trkpt lat="43.70867" lon="1.47837">
        <ele>183.26843261719</ele>
        <time>2014-01-04T14:17:47Z</time>
      </trkpt>
      <trkpt lat="43.70876" lon="1.47827">
        <ele>182.78784179688</ele>
        <time>2014-01-04T14:17:51Z</time>
      </trkpt>
      <trkpt lat="43.70888" lon="1.47816">
        <ele>183.26843261719</ele>
        <time>2014-01-04T14:17:56Z</time>
      </trkpt>
      <trkpt lat="43.70901" lon="1.47807">
        <ele>184.22985839844</ele>
        <time>2014-01-04T14:18:01Z</time>
      </trkpt>
      <trkpt lat="43.70903" lon="1.47804">
        <ele>184.22985839844</ele>
        <time>2014-01-04T14:18:02Z</time>
      </trkpt>
      <trkpt lat="43.70917" lon="1.47797">
        <ele>183.7490234375</ele>
        <time>2014-01-04T14:18:07Z</time>
      </trkpt>
      <trkpt lat="43.70934" lon="1.478">
        <ele>184.71057128906</ele>
        <time>2014-01-04T14:18:13Z</time>
      </trkpt>
      <trkpt lat="43.70945" lon="1.47799">
        <ele>184.71057128906</ele>
        <time>2014-01-04T14:18:17Z</time>
      </trkpt>
      <trkpt lat="43.70963" lon="1.47799">
        <ele>184.22985839844</ele>
        <time>2014-01-04T14:18:23Z</time>
      </trkpt>
      <trkpt lat="43.70976" lon="1.47802">
        <ele>183.7490234375</ele>
        <time>2014-01-04T14:18:28Z</time>
      </trkpt>
      <trkpt lat="43.70993" lon="1.47811">
        <ele>182.30712890625</ele>
        <time>2014-01-04T14:18:35Z</time>
      </trkpt>
      <trkpt lat="43.71004" lon="1.47821">
        <ele>181.34582519531</ele>
        <time>2014-01-04T14:18:40Z</time>
      </trkpt>
      <trkpt lat="43.71012" lon="1.4783">
        <ele>179.90380859375</ele>
        <time>2014-01-04T14:18:44Z</time>
      </trkpt>
      <trkpt lat="43.71024" lon="1.47837">
        <ele>179.42321777344</ele>
        <time>2014-01-04T14:18:49Z</time>
      </trkpt>
      <trkpt lat="43.71034" lon="1.47838">
        <ele>179.90380859375</ele>
        <time>2014-01-04T14:18:53Z</time>
      </trkpt>
      <trkpt lat="43.71043" lon="1.47846">
        <ele>179.90380859375</ele>
        <time>2014-01-04T14:18:57Z</time>
      </trkpt>
      <trkpt lat="43.71054" lon="1.47858">
        <ele>180.865234375</ele>
        <time>2014-01-04T14:19:02Z</time>
      </trkpt>
      <trkpt lat="43.71067" lon="1.47867">
        <ele>179.90380859375</ele>
        <time>2014-01-04T14:19:07Z</time>
      </trkpt>
      <trkpt lat="43.71073" lon="1.47867">
        <ele>179.90380859375</ele>
        <time>2014-01-04T14:19:09Z</time>
      </trkpt>
      <trkpt lat="43.71082" lon="1.47858">
        <ele>180.38452148438</ele>
        <time>2014-01-04T14:19:13Z</time>
      </trkpt>
      <trkpt lat="43.71091" lon="1.47848">
        <ele>179.90380859375</ele>
        <time>2014-01-04T14:19:17Z</time>
      </trkpt>
      <trkpt lat="43.71096" lon="1.4784">
        <ele>178.4619140625</ele>
        <time>2014-01-04T14:19:20Z</time>
      </trkpt>
      <trkpt lat="43.71109" lon="1.47826">
        <ele>176.53930664062</ele>
        <time>2014-01-04T14:19:26Z</time>
      </trkpt>
      <trkpt lat="43.7112" lon="1.47822">
        <ele>176.05859375</ele>
        <time>2014-01-04T14:19:30Z</time>
      </trkpt>
      <trkpt lat="43.71132" lon="1.47823">
        <ele>176.05859375</ele>
        <time>2014-01-04T14:19:34Z</time>
      </trkpt>
      <trkpt lat="43.71144" lon="1.47829">
        <ele>175.57788085938</ele>
        <time>2014-01-04T14:19:39Z</time>
      </trkpt>
      <trkpt lat="43.71149" lon="1.47833">
        <ele>175.57788085938</ele>
        <time>2014-01-04T14:19:41Z</time>
      </trkpt>
      <trkpt lat="43.71165" lon="1.47847">
        <ele>177.02001953125</ele>
        <time>2014-01-04T14:19:47Z</time>
      </trkpt>
      <trkpt lat="43.71179" lon="1.47859">
        <ele>177.02001953125</ele>
        <time>2014-01-04T14:19:52Z</time>
      </trkpt>
      <trkpt lat="43.71186" lon="1.47866">
        <ele>177.02001953125</ele>
        <time>2014-01-04T14:19:55Z</time>
      </trkpt>
      <trkpt lat="43.71196" lon="1.47874">
        <ele>177.98120117188</ele>
        <time>2014-01-04T14:19:59Z</time>
      </trkpt>
      <trkpt lat="43.71205" lon="1.47881">
        <ele>178.4619140625</ele>
        <time>2014-01-04T14:20:03Z</time>
      </trkpt>
      <trkpt lat="43.7122" lon="1.47871">
        <ele>177.98120117188</ele>
        <time>2014-01-04T14:20:09Z</time>
      </trkpt>
      <trkpt lat="43.71228" lon="1.47858">
        <ele>177.02001953125</ele>
        <time>2014-01-04T14:20:13Z</time>
      </trkpt>
      <trkpt lat="43.71233" lon="1.47838">
        <ele>177.02001953125</ele>
        <time>2014-01-04T14:20:18Z</time>
      </trkpt>
      <trkpt lat="43.71238" lon="1.47823">
        <ele>176.05859375</ele>
        <time>2014-01-04T14:20:22Z</time>
      </trkpt>
      <trkpt lat="43.71242" lon="1.47804">
        <ele>174.61657714844</ele>
        <time>2014-01-04T14:20:27Z</time>
      </trkpt>
      <trkpt lat="43.71245" lon="1.47788">
        <ele>174.13586425781</ele>
        <time>2014-01-04T14:20:31Z</time>
      </trkpt>
      <trkpt lat="43.7125" lon="1.47773">
        <ele>174.13586425781</ele>
        <time>2014-01-04T14:20:35Z</time>
      </trkpt>
      <trkpt lat="43.71258" lon="1.47752">
        <ele>174.13586425781</ele>
        <time>2014-01-04T14:20:41Z</time>
      </trkpt>
      <trkpt lat="43.71265" lon="1.47731">
        <ele>172.69396972656</ele>
        <time>2014-01-04T14:20:47Z</time>
      </trkpt>
      <trkpt lat="43.71272" lon="1.47709">
        <ele>171.73266601562</ele>
        <time>2014-01-04T14:20:53Z</time>
      </trkpt>
      <trkpt lat="43.71269" lon="1.47692">
        <ele>171.73266601562</ele>
        <time>2014-01-04T14:20:58Z</time>
      </trkpt>
      <trkpt lat="43.71256" lon="1.47673">
        <ele>172.21325683594</ele>
        <time>2014-01-04T14:21:05Z</time>
      </trkpt>
      <trkpt lat="43.71252" lon="1.47663">
        <ele>172.69396972656</ele>
        <time>2014-01-04T14:21:08Z</time>
      </trkpt>
      <trkpt lat="43.71257" lon="1.47649">
        <ele>173.17468261719</ele>
        <time>2014-01-04T14:21:12Z</time>
      </trkpt>
      <trkpt lat="43.71263" lon="1.47641">
        <ele>172.69396972656</ele>
        <time>2014-01-04T14:21:15Z</time>
      </trkpt>
      <trkpt lat="43.71268" lon="1.47625">
        <ele>172.21325683594</ele>
        <time>2014-01-04T14:21:19Z</time>
      </trkpt>
      <trkpt lat="43.71272" lon="1.47608">
        <ele>172.69396972656</ele>
        <time>2014-01-04T14:21:24Z</time>
      </trkpt>
      <trkpt lat="43.71281" lon="1.47589">
        <ele>171.73266601562</ele>
        <time>2014-01-04T14:21:30Z</time>
      </trkpt>
      <trkpt lat="43.71293" lon="1.47582">
        <ele>171.25207519531</ele>
        <time>2014-01-04T14:21:35Z</time>
      </trkpt>
      <trkpt lat="43.71299" lon="1.47583">
        <ele>171.25207519531</ele>
        <time>2014-01-04T14:21:37Z</time>
      </trkpt>
      <trkpt lat="43.71315" lon="1.47582">
        <ele>171.25207519531</ele>
        <time>2014-01-04T14:21:42Z</time>
      </trkpt>
      <trkpt lat="43.71328" lon="1.4758">
        <ele>170.29064941406</ele>
        <time>2014-01-04T14:21:46Z</time>
      </trkpt>
      <trkpt lat="43.71339" lon="1.47575">
        <ele>170.77136230469</ele>
        <time>2014-01-04T14:21:50Z</time>
      </trkpt>
      <trkpt lat="43.71355" lon="1.47567">
        <ele>169.32946777344</ele>
        <time>2014-01-04T14:21:56Z</time>
      </trkpt>
      <trkpt lat="43.7137" lon="1.4756">
        <ele>167.40673828125</ele>
        <time>2014-01-04T14:22:01Z</time>
      </trkpt>
      <trkpt lat="43.71383" lon="1.47552">
        <ele>165.00341796875</ele>
        <time>2014-01-04T14:22:06Z</time>
      </trkpt>
      <trkpt lat="43.71385" lon="1.47549">
        <ele>165.00341796875</ele>
        <time>2014-01-04T14:22:07Z</time>
      </trkpt>
      <trkpt lat="43.71394" lon="1.47545">
        <ele>164.04211425781</ele>
        <time>2014-01-04T14:22:12Z</time>
      </trkpt>
      <trkpt lat="43.71404" lon="1.47538">
        <ele>164.52270507812</ele>
        <time>2014-01-04T14:22:18Z</time>
      </trkpt>
      <trkpt lat="43.71415" lon="1.4753">
        <ele>165.00341796875</ele>
        <time>2014-01-04T14:22:23Z</time>
      </trkpt>
      <trkpt lat="43.71423" lon="1.4752">
        <ele>163.5615234375</ele>
        <time>2014-01-04T14:22:28Z</time>
      </trkpt>
      <trkpt lat="43.71426" lon="1.47518">
        <ele>163.08081054688</ele>
        <time>2014-01-04T14:22:30Z</time>
      </trkpt>
      <trkpt lat="43.71436" lon="1.47526">
        <ele>164.52270507812</ele>
        <time>2014-01-04T14:22:36Z</time>
      </trkpt>
      <trkpt lat="43.7144" lon="1.47534">
        <ele>164.04211425781</ele>
        <time>2014-01-04T14:22:40Z</time>
      </trkpt>
      <trkpt lat="43.71444" lon="1.47538">
        <ele>164.52270507812</ele>
        <time>2014-01-04T14:22:43Z</time>
      </trkpt>
      <trkpt lat="43.7145" lon="1.47542">
        <ele>165.48413085938</ele>
        <time>2014-01-04T14:22:46Z</time>
      </trkpt>
      <trkpt lat="43.71458" lon="1.47553">
        <ele>165.48413085938</ele>
        <time>2014-01-04T14:22:51Z</time>
      </trkpt>
      <trkpt lat="43.71465" lon="1.4756">
        <ele>164.04211425781</ele>
        <time>2014-01-04T14:22:55Z</time>
      </trkpt>
      <trkpt lat="43.71468" lon="1.47563">
        <ele>164.52270507812</ele>
        <time>2014-01-04T14:22:59Z</time>
      </trkpt>
      <trkpt lat="43.71477" lon="1.47562">
        <ele>162.11950683594</ele>
        <time>2014-01-04T14:23:06Z</time>
      </trkpt>
      <trkpt lat="43.7148" lon="1.47559">
        <ele>161.158203125</ele>
        <time>2014-01-04T14:23:14Z</time>
      </trkpt>
      <trkpt lat="43.71481" lon="1.47556">
        <ele>161.158203125</ele>
        <time>2014-01-04T14:23:22Z</time>
      </trkpt>
      <trkpt lat="43.71486" lon="1.47555">
        <ele>164.04211425781</ele>
        <time>2014-01-04T14:23:31Z</time>
      </trkpt>
      <trkpt lat="43.71489" lon="1.47555">
        <ele>163.5615234375</ele>
        <time>2014-01-04T14:23:39Z</time>
      </trkpt>
      <trkpt lat="43.71491" lon="1.47559">
        <ele>161.158203125</ele>
        <time>2014-01-04T14:23:43Z</time>
      </trkpt>
      <trkpt lat="43.71496" lon="1.47564">
        <ele>159.71618652344</ele>
        <time>2014-01-04T14:23:48Z</time>
      </trkpt>
      <trkpt lat="43.71503" lon="1.4757">
        <ele>161.63891601562</ele>
        <time>2014-01-04T14:23:55Z</time>
      </trkpt>
      <trkpt lat="43.71506" lon="1.47573">
        <ele>162.11950683594</ele>
        <time>2014-01-04T14:23:58Z</time>
      </trkpt>
      <trkpt lat="43.71513" lon="1.4758">
        <ele>165.00341796875</ele>
        <time>2014-01-04T14:24:04Z</time>
      </trkpt>
      <trkpt lat="43.71519" lon="1.47588">
        <ele>166.92602539062</ele>
        <time>2014-01-04T14:24:08Z</time>
      </trkpt>
      <trkpt lat="43.71524" lon="1.47594">
        <ele>167.40673828125</ele>
        <time>2014-01-04T14:24:11Z</time>
      </trkpt>
      <trkpt lat="43.71532" lon="1.47603">
        <ele>168.36804199219</ele>
        <time>2014-01-04T14:24:16Z</time>
      </trkpt>
      <trkpt lat="43.71543" lon="1.47615">
        <ele>171.25207519531</ele>
        <time>2014-01-04T14:24:22Z</time>
      </trkpt>
      <trkpt lat="43.71553" lon="1.47623">
        <ele>172.21325683594</ele>
        <time>2014-01-04T14:24:27Z</time>
      </trkpt>
      <trkpt lat="43.71561" lon="1.47632">
        <ele>174.13586425781</ele>
        <time>2014-01-04T14:24:32Z</time>
      </trkpt>
      <trkpt lat="43.71569" lon="1.4764">
        <ele>174.61657714844</ele>
        <time>2014-01-04T14:24:36Z</time>
      </trkpt>
      <trkpt lat="43.71577" lon="1.47645">
        <ele>173.17468261719</ele>
        <time>2014-01-04T14:24:40Z</time>
      </trkpt>
      <trkpt lat="43.71585" lon="1.47638">
        <ele>171.73266601562</ele>
        <time>2014-01-04T14:24:45Z</time>
      </trkpt>
      <trkpt lat="43.71593" lon="1.47624">
        <ele>170.29064941406</ele>
        <time>2014-01-04T14:24:50Z</time>
      </trkpt>
      <trkpt lat="43.71595" lon="1.47621">
        <ele>169.81005859375</ele>
        <time>2014-01-04T14:24:51Z</time>
      </trkpt>
      <trkpt lat="43.71606" lon="1.47619">
        <ele>167.40673828125</ele>
        <time>2014-01-04T14:24:55Z</time>
      </trkpt>
      <trkpt lat="43.71621" lon="1.47634">
        <ele>165.48413085938</ele>
        <time>2014-01-04T14:25:01Z</time>
      </trkpt>
      <trkpt lat="43.71623" lon="1.47637">
        <ele>165.00341796875</ele>
        <time>2014-01-04T14:25:02Z</time>
      </trkpt>
      <trkpt lat="43.71634" lon="1.47648">
        <ele>164.52270507812</ele>
        <time>2014-01-04T14:25:07Z</time>
      </trkpt>
      <trkpt lat="43.71641" lon="1.47656">
        <ele>164.52270507812</ele>
        <time>2014-01-04T14:25:11Z</time>
      </trkpt>
      <trkpt lat="43.71648" lon="1.47668">
        <ele>165.48413085938</ele>
        <time>2014-01-04T14:25:16Z</time>
      </trkpt>
      <trkpt lat="43.71656" lon="1.4768">
        <ele>165.96472167969</ele>
        <time>2014-01-04T14:25:21Z</time>
      </trkpt>
      <trkpt lat="43.71658" lon="1.47683">
        <ele>165.96472167969</ele>
        <time>2014-01-04T14:25:22Z</time>
      </trkpt>
      <trkpt lat="43.71668" lon="1.477">
        <ele>167.40673828125</ele>
        <time>2014-01-04T14:25:29Z</time>
      </trkpt>
      <trkpt lat="43.71671" lon="1.47703">
        <ele>168.36804199219</ele>
        <time>2014-01-04T14:25:31Z</time>
      </trkpt>
      <trkpt lat="43.71681" lon="1.47701">
        <ele>168.84875488281</ele>
        <time>2014-01-04T14:25:36Z</time>
      </trkpt>
      <trkpt lat="43.71683" lon="1.47698">
        <ele>168.84875488281</ele>
        <time>2014-01-04T14:25:37Z</time>
      </trkpt>
      <trkpt lat="43.71693" lon="1.47683">
        <ele>168.84875488281</ele>
        <time>2014-01-04T14:25:43Z</time>
      </trkpt>
      <trkpt lat="43.71701" lon="1.47665">
        <ele>169.32946777344</ele>
        <time>2014-01-04T14:25:48Z</time>
      </trkpt>
      <trkpt lat="43.71708" lon="1.47645">
        <ele>168.36804199219</ele>
        <time>2014-01-04T14:25:53Z</time>
      </trkpt>
      <trkpt lat="43.71716" lon="1.47636">
        <ele>168.84875488281</ele>
        <time>2014-01-04T14:25:57Z</time>
      </trkpt>
      <trkpt lat="43.71725" lon="1.47623">
        <ele>168.36804199219</ele>
        <time>2014-01-04T14:26:02Z</time>
      </trkpt>
      <trkpt lat="43.71737" lon="1.47606">
        <ele>166.4453125</ele>
        <time>2014-01-04T14:26:08Z</time>
      </trkpt>
      <trkpt lat="43.71747" lon="1.47594">
        <ele>166.4453125</ele>
        <time>2014-01-04T14:26:13Z</time>
      </trkpt>
      <trkpt lat="43.71754" lon="1.47582">
        <ele>166.92602539062</ele>
        <time>2014-01-04T14:26:17Z</time>
      </trkpt>
      <trkpt lat="43.71764" lon="1.47567">
        <ele>166.4453125</ele>
        <time>2014-01-04T14:26:22Z</time>
      </trkpt>
      <trkpt lat="43.71775" lon="1.47554">
        <ele>166.92602539062</ele>
        <time>2014-01-04T14:26:27Z</time>
      </trkpt>
      <trkpt lat="43.71779" lon="1.47549">
        <ele>166.92602539062</ele>
        <time>2014-01-04T14:26:29Z</time>
      </trkpt>
      <trkpt lat="43.71786" lon="1.47536">
        <ele>166.4453125</ele>
        <time>2014-01-04T14:26:33Z</time>
      </trkpt>
      <trkpt lat="43.71794" lon="1.47522">
        <ele>165.96472167969</ele>
        <time>2014-01-04T14:26:38Z</time>
      </trkpt>
      <trkpt lat="43.71803" lon="1.47503">
        <ele>163.5615234375</ele>
        <time>2014-01-04T14:26:44Z</time>
      </trkpt>
      <trkpt lat="43.71811" lon="1.47488">
        <ele>162.60009765625</ele>
        <time>2014-01-04T14:26:49Z</time>
      </trkpt>
      <trkpt lat="43.71819" lon="1.47474">
        <ele>163.08081054688</ele>
        <time>2014-01-04T14:26:54Z</time>
      </trkpt>
      <trkpt lat="43.71819" lon="1.47471">
        <ele>163.08081054688</ele>
        <time>2014-01-04T14:26:55Z</time>
      </trkpt>
      <trkpt lat="43.71817" lon="1.47456">
        <ele>164.04211425781</ele>
        <time>2014-01-04T14:27:00Z</time>
      </trkpt>
      <trkpt lat="43.71816" lon="1.47454">
        <ele>163.5615234375</ele>
        <time>2014-01-04T14:27:03Z</time>
      </trkpt>
      <trkpt lat="43.71813" lon="1.47452">
        <ele>163.08081054688</ele>
        <time>2014-01-04T14:27:09Z</time>
      </trkpt>
      <trkpt lat="43.71808" lon="1.47443">
        <ele>163.5615234375</ele>
        <time>2014-01-04T14:27:14Z</time>
      </trkpt>
      <trkpt lat="43.71804" lon="1.47431">
        <ele>163.5615234375</ele>
        <time>2014-01-04T14:27:19Z</time>
      </trkpt>
      <trkpt lat="43.71803" lon="1.47429">
        <ele>163.5615234375</ele>
        <time>2014-01-04T14:27:20Z</time>
      </trkpt>
      <trkpt lat="43.71793" lon="1.47427">
        <ele>163.5615234375</ele>
        <time>2014-01-04T14:27:25Z</time>
      </trkpt>
      <trkpt lat="43.71785" lon="1.4743">
        <ele>164.52270507812</ele>
        <time>2014-01-04T14:27:29Z</time>
      </trkpt>
      <trkpt lat="43.71773" lon="1.47437">
        <ele>163.5615234375</ele>
        <time>2014-01-04T14:27:34Z</time>
      </trkpt>
      <trkpt lat="43.71767" lon="1.47441">
        <ele>163.5615234375</ele>
        <time>2014-01-04T14:27:38Z</time>
      </trkpt>
      <trkpt lat="43.71764" lon="1.47441">
        <ele>163.5615234375</ele>
        <time>2014-01-04T14:27:40Z</time>
      </trkpt>
      <trkpt lat="43.71759" lon="1.47434">
        <ele>162.11950683594</ele>
        <time>2014-01-04T14:27:45Z</time>
      </trkpt>
      <trkpt lat="43.71762" lon="1.47424">
        <ele>157.31286621094</ele>
        <time>2014-01-04T14:27:49Z</time>
      </trkpt>
      <trkpt lat="43.7177" lon="1.47414">
        <ele>152.50634765625</ele>
        <time>2014-01-04T14:27:54Z</time>
      </trkpt>
      <trkpt lat="43.71776" lon="1.47405">
        <ele>150.10302734375</ele>
        <time>2014-01-04T14:27:59Z</time>
      </trkpt>
      <trkpt lat="43.71781" lon="1.47396">
        <ele>148.18041992188</ele>
        <time>2014-01-04T14:28:03Z</time>
      </trkpt>
      <trkpt lat="43.71786" lon="1.47388">
        <ele>149.1416015625</ele>
        <time>2014-01-04T14:28:07Z</time>
      </trkpt>
      <trkpt lat="43.7179" lon="1.47383">
        <ele>149.62231445312</ele>
        <time>2014-01-04T14:28:09Z</time>
      </trkpt>
      <trkpt lat="43.718" lon="1.4737">
        <ele>149.62231445312</ele>
        <time>2014-01-04T14:28:15Z</time>
      </trkpt>
      <trkpt lat="43.71804" lon="1.47364">
        <ele>150.10302734375</ele>
        <time>2014-01-04T14:28:18Z</time>
      </trkpt>
      <trkpt lat="43.71815" lon="1.47355">
        <ele>150.58361816406</ele>
        <time>2014-01-04T14:28:23Z</time>
      </trkpt>
      <trkpt lat="43.71822" lon="1.47346">
        <ele>149.1416015625</ele>
        <time>2014-01-04T14:28:28Z</time>
      </trkpt>
      <trkpt lat="43.71827" lon="1.47343">
        <ele>149.62231445312</ele>
        <time>2014-01-04T14:28:30Z</time>
      </trkpt>
      <trkpt lat="43.71835" lon="1.47336">
        <ele>148.66101074219</ele>
        <time>2014-01-04T14:28:35Z</time>
      </trkpt>
      <trkpt lat="43.71842" lon="1.47327">
        <ele>148.66101074219</ele>
        <time>2014-01-04T14:28:39Z</time>
      </trkpt>
      <trkpt lat="43.71848" lon="1.47317">
        <ele>147.21899414062</ele>
        <time>2014-01-04T14:28:43Z</time>
      </trkpt>
      <trkpt lat="43.71852" lon="1.47314">
        <ele>146.2578125</ele>
        <time>2014-01-04T14:28:45Z</time>
      </trkpt>
      <trkpt lat="43.71855" lon="1.4731">
        <ele>145.29638671875</ele>
        <time>2014-01-04T14:28:47Z</time>
      </trkpt>
      <trkpt lat="43.71863" lon="1.47304">
        <ele>145.29638671875</ele>
        <time>2014-01-04T14:28:51Z</time>
      </trkpt>
      <trkpt lat="43.71864" lon="1.47301">
        <ele>145.29638671875</ele>
        <time>2014-01-04T14:28:52Z</time>
      </trkpt>
      <trkpt lat="43.71875" lon="1.47288">
        <ele>145.29638671875</ele>
        <time>2014-01-04T14:28:58Z</time>
      </trkpt>
      <trkpt lat="43.7188" lon="1.47281">
        <ele>145.77709960938</ele>
        <time>2014-01-04T14:29:01Z</time>
      </trkpt>
      <trkpt lat="43.71888" lon="1.47272">
        <ele>145.29638671875</ele>
        <time>2014-01-04T14:29:06Z</time>
      </trkpt>
      <trkpt lat="43.7189" lon="1.47269">
        <ele>144.81579589844</ele>
        <time>2014-01-04T14:29:07Z</time>
      </trkpt>
      <trkpt lat="43.719" lon="1.47257">
        <ele>145.29638671875</ele>
        <time>2014-01-04T14:29:13Z</time>
      </trkpt>
      <trkpt lat="43.71907" lon="1.4725">
        <ele>144.81579589844</ele>
        <time>2014-01-04T14:29:18Z</time>
      </trkpt>
      <trkpt lat="43.71909" lon="1.47247">
        <ele>144.33520507812</ele>
        <time>2014-01-04T14:29:19Z</time>
      </trkpt>
      <trkpt lat="43.71915" lon="1.47238">
        <ele>144.81579589844</ele>
        <time>2014-01-04T14:29:23Z</time>
      </trkpt>
      <trkpt lat="43.71923" lon="1.47224">
        <ele>144.33520507812</ele>
        <time>2014-01-04T14:29:28Z</time>
      </trkpt>
      <trkpt lat="43.71925" lon="1.47221">
        <ele>144.33520507812</ele>
        <time>2014-01-04T14:29:29Z</time>
      </trkpt>
      <trkpt lat="43.71929" lon="1.47205">
        <ele>145.77709960938</ele>
        <time>2014-01-04T14:29:35Z</time>
      </trkpt>
      <trkpt lat="43.71933" lon="1.47189">
        <ele>144.81579589844</ele>
        <time>2014-01-04T14:29:39Z</time>
      </trkpt>
      <trkpt lat="43.71938" lon="1.47178">
        <ele>145.77709960938</ele>
        <time>2014-01-04T14:29:43Z</time>
      </trkpt>
      <trkpt lat="43.71947" lon="1.4717">
        <ele>147.21899414062</ele>
        <time>2014-01-04T14:29:47Z</time>
      </trkpt>
      <trkpt lat="43.71953" lon="1.4716">
        <ele>147.69970703125</ele>
        <time>2014-01-04T14:29:50Z</time>
      </trkpt>
      <trkpt lat="43.71966" lon="1.47147">
        <ele>147.69970703125</ele>
        <time>2014-01-04T14:29:56Z</time>
      </trkpt>
      <trkpt lat="43.71975" lon="1.47142">
        <ele>148.18041992188</ele>
        <time>2014-01-04T14:30:00Z</time>
      </trkpt>
      <trkpt lat="43.71982" lon="1.47133">
        <ele>149.1416015625</ele>
        <time>2014-01-04T14:30:04Z</time>
      </trkpt>
      <trkpt lat="43.71995" lon="1.47124">
        <ele>150.10302734375</ele>
        <time>2014-01-04T14:30:10Z</time>
      </trkpt>
      <trkpt lat="43.72008" lon="1.47115">
        <ele>150.58361816406</ele>
        <time>2014-01-04T14:30:16Z</time>
      </trkpt>
      <trkpt lat="43.72012" lon="1.47112">
        <ele>150.10302734375</ele>
        <time>2014-01-04T14:30:18Z</time>
      </trkpt>
      <trkpt lat="43.72025" lon="1.47102">
        <ele>147.69970703125</ele>
        <time>2014-01-04T14:30:24Z</time>
      </trkpt>
      <trkpt lat="43.72036" lon="1.47089">
        <ele>151.544921875</ele>
        <time>2014-01-04T14:30:30Z</time>
      </trkpt>
      <trkpt lat="43.72042" lon="1.47076">
        <ele>151.544921875</ele>
        <time>2014-01-04T14:30:35Z</time>
      </trkpt>
      <trkpt lat="43.72052" lon="1.47066">
        <ele>149.62231445312</ele>
        <time>2014-01-04T14:30:40Z</time>
      </trkpt>
      <trkpt lat="43.72055" lon="1.47059">
        <ele>148.18041992188</ele>
        <time>2014-01-04T14:30:43Z</time>
      </trkpt>
      <trkpt lat="43.72061" lon="1.47053">
        <ele>147.69970703125</ele>
        <time>2014-01-04T14:30:46Z</time>
      </trkpt>
      <trkpt lat="43.72072" lon="1.47046">
        <ele>145.29638671875</ele>
        <time>2014-01-04T14:30:52Z</time>
      </trkpt>
      <trkpt lat="43.72076" lon="1.47048">
        <ele>146.73840332031</ele>
        <time>2014-01-04T14:30:56Z</time>
      </trkpt>
      <trkpt lat="43.72081" lon="1.47053">
        <ele>150.10302734375</ele>
        <time>2014-01-04T14:31:02Z</time>
      </trkpt>
      <trkpt lat="43.72084" lon="1.4706">
        <ele>153.94836425781</ele>
        <time>2014-01-04T14:31:10Z</time>
      </trkpt>
      <trkpt lat="43.72087" lon="1.47064">
        <ele>156.3515625</ele>
        <time>2014-01-04T14:31:18Z</time>
      </trkpt>
      <trkpt lat="43.7209" lon="1.47071">
        <ele>158.27416992188</ele>
        <time>2014-01-04T14:31:24Z</time>
      </trkpt>
      <trkpt lat="43.72094" lon="1.47075">
        <ele>159.23547363281</ele>
        <time>2014-01-04T14:31:29Z</time>
      </trkpt>
      <trkpt lat="43.72098" lon="1.4708">
        <ele>157.79357910156</ele>
        <time>2014-01-04T14:31:35Z</time>
      </trkpt>
      <trkpt lat="43.72099" lon="1.47082">
        <ele>160.19689941406</ele>
        <time>2014-01-04T14:31:40Z</time>
      </trkpt>
      <trkpt lat="43.72102" lon="1.47081">
        <ele>159.71618652344</ele>
        <time>2014-01-04T14:31:42Z</time>
      </trkpt>
      <trkpt lat="43.7211" lon="1.47073">
        <ele>158.75476074219</ele>
        <time>2014-01-04T14:31:47Z</time>
      </trkpt>
      <trkpt lat="43.72119" lon="1.47062">
        <ele>157.31286621094</ele>
        <time>2014-01-04T14:31:51Z</time>
      </trkpt>
      <trkpt lat="43.72123" lon="1.47058">
        <ele>156.83215332031</ele>
        <time>2014-01-04T14:31:53Z</time>
      </trkpt>
      <trkpt lat="43.72136" lon="1.47042">
        <ele>155.87097167969</ele>
        <time>2014-01-04T14:31:59Z</time>
      </trkpt>
      <trkpt lat="43.72149" lon="1.47031">
        <ele>156.3515625</ele>
        <time>2014-01-04T14:32:05Z</time>
      </trkpt>
      <trkpt lat="43.72158" lon="1.47023">
        <ele>156.3515625</ele>
        <time>2014-01-04T14:32:09Z</time>
      </trkpt>
      <trkpt lat="43.72166" lon="1.47017">
        <ele>155.87097167969</ele>
        <time>2014-01-04T14:32:12Z</time>
      </trkpt>
      <trkpt lat="43.72176" lon="1.47008">
        <ele>155.39025878906</ele>
        <time>2014-01-04T14:32:17Z</time>
      </trkpt>
      <trkpt lat="43.7219" lon="1.46995">
        <ele>153.94836425781</ele>
        <time>2014-01-04T14:32:24Z</time>
      </trkpt>
      <trkpt lat="43.72201" lon="1.46986">
        <ele>152.50634765625</ele>
        <time>2014-01-04T14:32:29Z</time>
      </trkpt>
      <trkpt lat="43.72213" lon="1.46978">
        <ele>152.02575683594</ele>
        <time>2014-01-04T14:32:34Z</time>
      </trkpt>
      <trkpt lat="43.72223" lon="1.46971">
        <ele>151.06420898438</ele>
        <time>2014-01-04T14:32:39Z</time>
      </trkpt>
      <trkpt lat="43.72226" lon="1.46966">
        <ele>150.58361816406</ele>
        <time>2014-01-04T14:32:41Z</time>
      </trkpt>
      <trkpt lat="43.72232" lon="1.46955">
        <ele>150.58361816406</ele>
        <time>2014-01-04T14:32:45Z</time>
      </trkpt>
      <trkpt lat="43.7224" lon="1.46943">
        <ele>149.1416015625</ele>
        <time>2014-01-04T14:32:50Z</time>
      </trkpt>
      <trkpt lat="43.72242" lon="1.46938">
        <ele>149.1416015625</ele>
        <time>2014-01-04T14:32:52Z</time>
      </trkpt>
      <trkpt lat="43.72249" lon="1.46923">
        <ele>150.10302734375</ele>
        <time>2014-01-04T14:32:57Z</time>
      </trkpt>
      <trkpt lat="43.72256" lon="1.46906">
        <ele>150.10302734375</ele>
        <time>2014-01-04T14:33:02Z</time>
      </trkpt>
      <trkpt lat="43.72258" lon="1.46888">
        <ele>145.77709960938</ele>
        <time>2014-01-04T14:33:06Z</time>
      </trkpt>
      <trkpt lat="43.7226" lon="1.46873">
        <ele>144.81579589844</ele>
        <time>2014-01-04T14:33:09Z</time>
      </trkpt>
      <trkpt lat="43.72262" lon="1.46869">
        <ele>145.77709960938</ele>
        <time>2014-01-04T14:33:10Z</time>
      </trkpt>
      <trkpt lat="43.72274" lon="1.46858">
        <ele>143.85437011719</ele>
        <time>2014-01-04T14:33:16Z</time>
      </trkpt>
      <trkpt lat="43.72287" lon="1.4685">
        <ele>142.41247558594</ele>
        <time>2014-01-04T14:33:21Z</time>
      </trkpt>
      <trkpt lat="43.72296" lon="1.46846">
        <ele>141.45104980469</ele>
        <time>2014-01-04T14:33:24Z</time>
      </trkpt>
      <trkpt lat="43.72308" lon="1.46839">
        <ele>141.93176269531</ele>
        <time>2014-01-04T14:33:29Z</time>
      </trkpt>
      <trkpt lat="43.72317" lon="1.46836">
        <ele>141.45104980469</ele>
        <time>2014-01-04T14:33:33Z</time>
      </trkpt>
      <trkpt lat="43.72326" lon="1.46833">
        <ele>143.37365722656</ele>
        <time>2014-01-04T14:33:36Z</time>
      </trkpt>
      <trkpt lat="43.72338" lon="1.46838">
        <ele>149.62231445312</ele>
        <time>2014-01-04T14:33:43Z</time>
      </trkpt>
      <trkpt lat="43.72339" lon="1.4684">
        <ele>149.1416015625</ele>
        <time>2014-01-04T14:33:45Z</time>
      </trkpt>
      <trkpt lat="43.72339" lon="1.46843">
        <ele>148.66101074219</ele>
        <time>2014-01-04T14:33:48Z</time>
      </trkpt>
      <trkpt lat="43.72341" lon="1.46848">
        <ele>150.10302734375</ele>
        <time>2014-01-04T14:33:54Z</time>
      </trkpt>
      <trkpt lat="43.72344" lon="1.4685">
        <ele>150.58361816406</ele>
        <time>2014-01-04T14:34:00Z</time>
      </trkpt>
      <trkpt lat="43.72345" lon="1.46854">
        <ele>155.39025878906</ele>
        <time>2014-01-04T14:34:05Z</time>
      </trkpt>
      <trkpt lat="43.72345" lon="1.46858">
        <ele>154.90954589844</ele>
        <time>2014-01-04T14:34:10Z</time>
      </trkpt>
      <trkpt lat="43.72345" lon="1.46862">
        <ele>155.39025878906</ele>
        <time>2014-01-04T14:34:15Z</time>
      </trkpt>
      <trkpt lat="43.72346" lon="1.46871">
        <ele>155.87097167969</ele>
        <time>2014-01-04T14:34:22Z</time>
      </trkpt>
      <trkpt lat="43.72349" lon="1.4688">
        <ele>155.87097167969</ele>
        <time>2014-01-04T14:34:30Z</time>
      </trkpt>
      <trkpt lat="43.72351" lon="1.46885">
        <ele>156.83215332031</ele>
        <time>2014-01-04T14:34:35Z</time>
      </trkpt>
      <trkpt lat="43.72355" lon="1.4689">
        <ele>158.27416992188</ele>
        <time>2014-01-04T14:34:39Z</time>
      </trkpt>
      <trkpt lat="43.72357" lon="1.46892">
        <ele>160.19689941406</ele>
        <time>2014-01-04T14:34:45Z</time>
      </trkpt>
      <trkpt lat="43.72356" lon="1.46894">
        <ele>159.71618652344</ele>
        <time>2014-01-04T14:34:53Z</time>
      </trkpt>
      <trkpt lat="43.72357" lon="1.46899">
        <ele>159.23547363281</ele>
        <time>2014-01-04T14:34:58Z</time>
      </trkpt>
      <trkpt lat="43.72361" lon="1.46904">
        <ele>160.19689941406</ele>
        <time>2014-01-04T14:35:03Z</time>
      </trkpt>
      <trkpt lat="43.72362" lon="1.46908">
        <ele>160.19689941406</ele>
        <time>2014-01-04T14:35:06Z</time>
      </trkpt>
      <trkpt lat="43.72365" lon="1.46915">
        <ele>161.63891601562</ele>
        <time>2014-01-04T14:35:12Z</time>
      </trkpt>
      <trkpt lat="43.72367" lon="1.46922">
        <ele>162.60009765625</ele>
        <time>2014-01-04T14:35:18Z</time>
      </trkpt>
      <trkpt lat="43.7237" lon="1.4693">
        <ele>162.60009765625</ele>
        <time>2014-01-04T14:35:23Z</time>
      </trkpt>
      <trkpt lat="43.72377" lon="1.46942">
        <ele>164.52270507812</ele>
        <time>2014-01-04T14:35:30Z</time>
      </trkpt>
      <trkpt lat="43.72383" lon="1.46951">
        <ele>166.92602539062</ele>
        <time>2014-01-04T14:35:36Z</time>
      </trkpt>
      <trkpt lat="43.72385" lon="1.46964">
        <ele>167.40673828125</ele>
        <time>2014-01-04T14:35:45Z</time>
      </trkpt>
      <trkpt lat="43.72388" lon="1.46977">
        <ele>170.29064941406</ele>
        <time>2014-01-04T14:35:53Z</time>
      </trkpt>
      <trkpt lat="43.72391" lon="1.46984">
        <ele>170.77136230469</ele>
        <time>2014-01-04T14:35:57Z</time>
      </trkpt>
      <trkpt lat="43.72393" lon="1.46988">
        <ele>171.25207519531</ele>
        <time>2014-01-04T14:36:00Z</time>
      </trkpt>
      <trkpt lat="43.72398" lon="1.46999">
        <ele>172.21325683594</ele>
        <time>2014-01-04T14:36:05Z</time>
      </trkpt>
      <trkpt lat="43.724" lon="1.47004">
        <ele>172.69396972656</ele>
        <time>2014-01-04T14:36:07Z</time>
      </trkpt>
      <trkpt lat="43.72404" lon="1.47021">
        <ele>174.61657714844</ele>
        <time>2014-01-04T14:36:13Z</time>
      </trkpt>
      <trkpt lat="43.72407" lon="1.47027">
        <ele>174.61657714844</ele>
        <time>2014-01-04T14:36:15Z</time>
      </trkpt>
      <trkpt lat="43.72416" lon="1.47041">
        <ele>176.53930664062</ele>
        <time>2014-01-04T14:36:21Z</time>
      </trkpt>
      <trkpt lat="43.72423" lon="1.47056">
        <ele>177.02001953125</ele>
        <time>2014-01-04T14:36:27Z</time>
      </trkpt>
      <trkpt lat="43.72425" lon="1.47061">
        <ele>176.53930664062</ele>
        <time>2014-01-04T14:36:29Z</time>
      </trkpt>
      <trkpt lat="43.72433" lon="1.47081">
        <ele>175.57788085938</ele>
        <time>2014-01-04T14:36:36Z</time>
      </trkpt>
      <trkpt lat="43.7244" lon="1.47093">
        <ele>174.61657714844</ele>
        <time>2014-01-04T14:36:41Z</time>
      </trkpt>
      <trkpt lat="43.72446" lon="1.47102">
        <ele>174.61657714844</ele>
        <time>2014-01-04T14:36:45Z</time>
      </trkpt>
      <trkpt lat="43.72453" lon="1.47115">
        <ele>173.17468261719</ele>
        <time>2014-01-04T14:36:50Z</time>
      </trkpt>
      <trkpt lat="43.7246" lon="1.47127">
        <ele>172.21325683594</ele>
        <time>2014-01-04T14:36:55Z</time>
      </trkpt>
      <trkpt lat="43.72465" lon="1.47136">
        <ele>171.25207519531</ele>
        <time>2014-01-04T14:37:00Z</time>
      </trkpt>
      <trkpt lat="43.72466" lon="1.47139">
        <ele>170.77136230469</ele>
        <time>2014-01-04T14:37:07Z</time>
      </trkpt>
      <trkpt lat="43.72468" lon="1.47139">
        <ele>171.25207519531</ele>
        <time>2014-01-04T14:37:10Z</time>
      </trkpt>
      <trkpt lat="43.72477" lon="1.47139">
        <ele>169.81005859375</ele>
        <time>2014-01-04T14:37:16Z</time>
      </trkpt>
      <trkpt lat="43.72478" lon="1.47136">
        <ele>169.32946777344</ele>
        <time>2014-01-04T14:37:18Z</time>
      </trkpt>
      <trkpt lat="43.72479" lon="1.47134">
        <ele>168.84875488281</ele>
        <time>2014-01-04T14:37:20Z</time>
      </trkpt>
      <trkpt lat="43.72485" lon="1.47128">
        <ele>167.40673828125</ele>
        <time>2014-01-04T14:37:24Z</time>
      </trkpt>
      <trkpt lat="43.72492" lon="1.47118">
        <ele>165.96472167969</ele>
        <time>2014-01-04T14:37:28Z</time>
      </trkpt>
      <trkpt lat="43.72494" lon="1.47115">
        <ele>165.96472167969</ele>
        <time>2014-01-04T14:37:29Z</time>
      </trkpt>
      <trkpt lat="43.72501" lon="1.47098">
        <ele>165.48413085938</ele>
        <time>2014-01-04T14:37:34Z</time>
      </trkpt>
      <trkpt lat="43.72505" lon="1.47089">
        <ele>165.48413085938</ele>
        <time>2014-01-04T14:37:37Z</time>
      </trkpt>
      <trkpt lat="43.72512" lon="1.47078">
        <ele>166.4453125</ele>
        <time>2014-01-04T14:37:41Z</time>
      </trkpt>
      <trkpt lat="43.72516" lon="1.47073">
        <ele>166.4453125</ele>
        <time>2014-01-04T14:37:43Z</time>
      </trkpt>
      <trkpt lat="43.72521" lon="1.47061">
        <ele>166.92602539062</ele>
        <time>2014-01-04T14:37:46Z</time>
      </trkpt>
      <trkpt lat="43.72529" lon="1.47047">
        <ele>165.48413085938</ele>
        <time>2014-01-04T14:37:51Z</time>
      </trkpt>
      <trkpt lat="43.72536" lon="1.47032">
        <ele>165.48413085938</ele>
        <time>2014-01-04T14:37:56Z</time>
      </trkpt>
      <trkpt lat="43.72545" lon="1.47016">
        <ele>164.04211425781</ele>
        <time>2014-01-04T14:38:01Z</time>
      </trkpt>
      <trkpt lat="43.72554" lon="1.47006">
        <ele>163.5615234375</ele>
        <time>2014-01-04T14:38:05Z</time>
      </trkpt>
      <trkpt lat="43.72563" lon="1.46995">
        <ele>163.08081054688</ele>
        <time>2014-01-04T14:38:10Z</time>
      </trkpt>
      <trkpt lat="43.72575" lon="1.46986">
        <ele>161.63891601562</ele>
        <time>2014-01-04T14:38:15Z</time>
      </trkpt>
      <trkpt lat="43.7258" lon="1.46985">
        <ele>161.158203125</ele>
        <time>2014-01-04T14:38:17Z</time>
      </trkpt>
      <trkpt lat="43.72586" lon="1.4698">
        <ele>159.23547363281</ele>
        <time>2014-01-04T14:38:21Z</time>
      </trkpt>
      <trkpt lat="43.7259" lon="1.46977">
        <ele>158.27416992188</ele>
        <time>2014-01-04T14:38:23Z</time>
      </trkpt>
      <trkpt lat="43.72601" lon="1.46961">
        <ele>153.46765136719</ele>
        <time>2014-01-04T14:38:30Z</time>
      </trkpt>
      <trkpt lat="43.7261" lon="1.46955">
        <ele>150.58361816406</ele>
        <time>2014-01-04T14:38:35Z</time>
      </trkpt>
      <trkpt lat="43.72615" lon="1.46948">
        <ele>149.1416015625</ele>
        <time>2014-01-04T14:38:39Z</time>
      </trkpt>
      <trkpt lat="43.72621" lon="1.46941">
        <ele>146.73840332031</ele>
        <time>2014-01-04T14:38:43Z</time>
      </trkpt>
      <trkpt lat="43.72628" lon="1.46938">
        <ele>145.77709960938</ele>
        <time>2014-01-04T14:38:46Z</time>
      </trkpt>
      <trkpt lat="43.72635" lon="1.46941">
        <ele>145.77709960938</ele>
        <time>2014-01-04T14:38:49Z</time>
      </trkpt>
      <trkpt lat="43.7264" lon="1.46948">
        <ele>145.29638671875</ele>
        <time>2014-01-04T14:38:53Z</time>
      </trkpt>
      <trkpt lat="43.72646" lon="1.46953">
        <ele>145.77709960938</ele>
        <time>2014-01-04T14:38:56Z</time>
      </trkpt>
      <trkpt lat="43.72654" lon="1.46958">
        <ele>145.77709960938</ele>
        <time>2014-01-04T14:38:59Z</time>
      </trkpt>
      <trkpt lat="43.72665" lon="1.46967">
        <ele>147.69970703125</ele>
        <time>2014-01-04T14:39:03Z</time>
      </trkpt>
      <trkpt lat="43.7268" lon="1.46979">
        <ele>147.69970703125</ele>
        <time>2014-01-04T14:39:09Z</time>
      </trkpt>
      <trkpt lat="43.72686" lon="1.46987">
        <ele>149.1416015625</ele>
        <time>2014-01-04T14:39:12Z</time>
      </trkpt>
      <trkpt lat="43.72695" lon="1.46995">
        <ele>150.58361816406</ele>
        <time>2014-01-04T14:39:16Z</time>
      </trkpt>
      <trkpt lat="43.72707" lon="1.47002">
        <ele>152.98693847656</ele>
        <time>2014-01-04T14:39:20Z</time>
      </trkpt>
      <trkpt lat="43.72714" lon="1.47011">
        <ele>154.42895507812</ele>
        <time>2014-01-04T14:39:24Z</time>
      </trkpt>
      <trkpt lat="43.72724" lon="1.47025">
        <ele>156.83215332031</ele>
        <time>2014-01-04T14:39:30Z</time>
      </trkpt>
      <trkpt lat="43.72736" lon="1.47035">
        <ele>156.3515625</ele>
        <time>2014-01-04T14:39:34Z</time>
      </trkpt>
      <trkpt lat="43.72747" lon="1.47045">
        <ele>155.87097167969</ele>
        <time>2014-01-04T14:39:39Z</time>
      </trkpt>
      <trkpt lat="43.72757" lon="1.47054">
        <ele>156.3515625</ele>
        <time>2014-01-04T14:39:43Z</time>
      </trkpt>
      <trkpt lat="43.72759" lon="1.47056">
        <ele>155.87097167969</ele>
        <time>2014-01-04T14:39:44Z</time>
      </trkpt>
      <trkpt lat="43.7277" lon="1.47066">
        <ele>154.90954589844</ele>
        <time>2014-01-04T14:39:48Z</time>
      </trkpt>
      <trkpt lat="43.72779" lon="1.47074">
        <ele>152.98693847656</ele>
        <time>2014-01-04T14:39:53Z</time>
      </trkpt>
      <trkpt lat="43.72779" lon="1.47078">
        <ele>152.02575683594</ele>
        <time>2014-01-04T14:39:58Z</time>
      </trkpt>
      <trkpt lat="43.72793" lon="1.4709">
        <ele>151.544921875</ele>
        <time>2014-01-04T14:40:04Z</time>
      </trkpt>
      <trkpt lat="43.72795" lon="1.47092">
        <ele>150.58361816406</ele>
        <time>2014-01-04T14:40:05Z</time>
      </trkpt>
      <trkpt lat="43.72804" lon="1.47106">
        <ele>145.77709960938</ele>
        <time>2014-01-04T14:40:11Z</time>
      </trkpt>
      <trkpt lat="43.72814" lon="1.47118">
        <ele>138.08654785156</ele>
        <time>2014-01-04T14:40:17Z</time>
      </trkpt>
      <trkpt lat="43.7282" lon="1.47124">
        <ele>135.20251464844</ele>
        <time>2014-01-04T14:40:20Z</time>
      </trkpt>
      <trkpt lat="43.72828" lon="1.47134">
        <ele>131.35729980469</ele>
        <time>2014-01-04T14:40:24Z</time>
      </trkpt>
      <trkpt lat="43.72837" lon="1.47146">
        <ele>128.9541015625</ele>
        <time>2014-01-04T14:40:30Z</time>
      </trkpt>
      <trkpt lat="43.72849" lon="1.4716">
        <ele>124.62805175781</ele>
        <time>2014-01-04T14:40:36Z</time>
      </trkpt>
      <trkpt lat="43.72857" lon="1.47169">
        <ele>124.14733886719</ele>
        <time>2014-01-04T14:40:40Z</time>
      </trkpt>
      <trkpt lat="43.72862" lon="1.47174">
        <ele>124.14733886719</ele>
        <time>2014-01-04T14:40:44Z</time>
      </trkpt>
      <trkpt lat="43.72875" lon="1.47171">
        <ele>130.39599609375</ele>
        <time>2014-01-04T14:40:50Z</time>
      </trkpt>
      <trkpt lat="43.72878" lon="1.47171">
        <ele>130.87670898438</ele>
        <time>2014-01-04T14:40:51Z</time>
      </trkpt>
      <trkpt lat="43.7289" lon="1.47162">
        <ele>130.39599609375</ele>
        <time>2014-01-04T14:40:57Z</time>
      </trkpt>
      <trkpt lat="43.729" lon="1.47154">
        <ele>131.837890625</ele>
        <time>2014-01-04T14:41:02Z</time>
      </trkpt>
      <trkpt lat="43.72909" lon="1.47149">
        <ele>136.16394042969</ele>
        <time>2014-01-04T14:41:07Z</time>
      </trkpt>
      <trkpt lat="43.72916" lon="1.47145">
        <ele>139.52844238281</ele>
        <time>2014-01-04T14:41:12Z</time>
      </trkpt>
      <trkpt lat="43.72922" lon="1.47144">
        <ele>141.93176269531</ele>
        <time>2014-01-04T14:41:17Z</time>
      </trkpt>
      <trkpt lat="43.7293" lon="1.47141">
        <ele>144.33520507812</ele>
        <time>2014-01-04T14:41:22Z</time>
      </trkpt>
      <trkpt lat="43.72932" lon="1.4714">
        <ele>145.29638671875</ele>
        <time>2014-01-04T14:41:24Z</time>
      </trkpt>
      <trkpt lat="43.72943" lon="1.4714">
        <ele>146.73840332031</ele>
        <time>2014-01-04T14:41:31Z</time>
      </trkpt>
      <trkpt lat="43.72951" lon="1.47142">
        <ele>146.2578125</ele>
        <time>2014-01-04T14:41:36Z</time>
      </trkpt>
      <trkpt lat="43.72959" lon="1.47146">
        <ele>144.33520507812</ele>
        <time>2014-01-04T14:41:40Z</time>
      </trkpt>
      <trkpt lat="43.7297" lon="1.47152">
        <ele>141.45104980469</ele>
        <time>2014-01-04T14:41:46Z</time>
      </trkpt>
      <trkpt lat="43.72976" lon="1.47154">
        <ele>140.00915527344</ele>
        <time>2014-01-04T14:41:49Z</time>
      </trkpt>
      <trkpt lat="43.72986" lon="1.4716">
        <ele>134.2412109375</ele>
        <time>2014-01-04T14:41:55Z</time>
      </trkpt>
      <trkpt lat="43.73001" lon="1.47168">
        <ele>128.9541015625</ele>
        <time>2014-01-04T14:42:01Z</time>
      </trkpt>
      <trkpt lat="43.7301" lon="1.47163">
        <ele>128.47338867188</ele>
        <time>2014-01-04T14:42:05Z</time>
      </trkpt>
      <trkpt lat="43.73012" lon="1.47161">
        <ele>128.9541015625</ele>
        <time>2014-01-04T14:42:06Z</time>
      </trkpt>
      <trkpt lat="43.73016" lon="1.47154">
        <ele>129.43469238281</ele>
        <time>2014-01-04T14:42:09Z</time>
      </trkpt>
      <trkpt lat="43.73021" lon="1.47146">
        <ele>131.35729980469</ele>
        <time>2014-01-04T14:42:13Z</time>
      </trkpt>
      <trkpt lat="43.73022" lon="1.4714">
        <ele>131.837890625</ele>
        <time>2014-01-04T14:42:15Z</time>
      </trkpt>
      <trkpt lat="43.73029" lon="1.4713">
        <ele>132.31860351562</ele>
        <time>2014-01-04T14:42:20Z</time>
      </trkpt>
      <trkpt lat="43.7303" lon="1.47128">
        <ele>132.31860351562</ele>
        <time>2014-01-04T14:42:21Z</time>
      </trkpt>
      <trkpt lat="43.73035" lon="1.47117">
        <ele>132.31860351562</ele>
        <time>2014-01-04T14:42:25Z</time>
      </trkpt>
      <trkpt lat="43.73037" lon="1.47105">
        <ele>134.2412109375</ele>
        <time>2014-01-04T14:42:29Z</time>
      </trkpt>
      <trkpt lat="43.73038" lon="1.47089">
        <ele>136.16394042969</ele>
        <time>2014-01-04T14:42:33Z</time>
      </trkpt>
      <trkpt lat="43.7304" lon="1.4708">
        <ele>135.20251464844</ele>
        <time>2014-01-04T14:42:36Z</time>
      </trkpt>
      <trkpt lat="43.73038" lon="1.47067">
        <ele>137.12524414062</ele>
        <time>2014-01-04T14:42:41Z</time>
      </trkpt>
      <trkpt lat="43.73032" lon="1.47056">
        <ele>138.08654785156</ele>
        <time>2014-01-04T14:42:46Z</time>
      </trkpt>
      <trkpt lat="43.7303" lon="1.47054">
        <ele>139.52844238281</ele>
        <time>2014-01-04T14:42:47Z</time>
      </trkpt>
      <trkpt lat="43.73024" lon="1.47045">
        <ele>140.97045898438</ele>
        <time>2014-01-04T14:42:52Z</time>
      </trkpt>
      <trkpt lat="43.73017" lon="1.47032">
        <ele>144.81579589844</ele>
        <time>2014-01-04T14:42:58Z</time>
      </trkpt>
      <trkpt lat="43.73011" lon="1.47017">
        <ele>147.21899414062</ele>
        <time>2014-01-04T14:43:03Z</time>
      </trkpt>
      <trkpt lat="43.73004" lon="1.47012">
        <ele>150.10302734375</ele>
        <time>2014-01-04T14:43:07Z</time>
      </trkpt>
      <trkpt lat="43.72996" lon="1.47008">
        <ele>152.98693847656</ele>
        <time>2014-01-04T14:43:12Z</time>
      </trkpt>
      <trkpt lat="43.72989" lon="1.47002">
        <ele>154.90954589844</ele>
        <time>2014-01-04T14:43:17Z</time>
      </trkpt>
      <trkpt lat="43.72982" lon="1.47007">
        <ele>156.83215332031</ele>
        <time>2014-01-04T14:43:21Z</time>
      </trkpt>
      <trkpt lat="43.72977" lon="1.47006">
        <ele>158.27416992188</ele>
        <time>2014-01-04T14:43:27Z</time>
      </trkpt>
      <trkpt lat="43.72971" lon="1.47008">
        <ele>160.67749023438</ele>
        <time>2014-01-04T14:43:32Z</time>
      </trkpt>
      <trkpt lat="43.72965" lon="1.47007">
        <ele>162.60009765625</ele>
        <time>2014-01-04T14:43:36Z</time>
      </trkpt>
      <trkpt lat="43.72961" lon="1.47005">
        <ele>163.08081054688</ele>
        <time>2014-01-04T14:43:40Z</time>
      </trkpt>
      <trkpt lat="43.72958" lon="1.47002">
        <ele>162.60009765625</ele>
        <time>2014-01-04T14:43:42Z</time>
      </trkpt>
      <trkpt lat="43.72956" lon="1.46997">
        <ele>159.23547363281</ele>
        <time>2014-01-04T14:43:46Z</time>
      </trkpt>
      <trkpt lat="43.72949" lon="1.4699">
        <ele>161.63891601562</ele>
        <time>2014-01-04T14:43:52Z</time>
      </trkpt>
      <trkpt lat="43.72943" lon="1.46987">
        <ele>164.04211425781</ele>
        <time>2014-01-04T14:43:58Z</time>
      </trkpt>
      <trkpt lat="43.72934" lon="1.46977">
        <ele>164.04211425781</ele>
        <time>2014-01-04T14:44:07Z</time>
      </trkpt>
      <trkpt lat="43.72927" lon="1.46971">
        <ele>164.04211425781</ele>
        <time>2014-01-04T14:44:12Z</time>
      </trkpt>
      <trkpt lat="43.72921" lon="1.46977">
        <ele>164.04211425781</ele>
        <time>2014-01-04T14:44:18Z</time>
      </trkpt>
      <trkpt lat="43.7292" lon="1.46986">
        <ele>161.63891601562</ele>
        <time>2014-01-04T14:44:22Z</time>
      </trkpt>
      <trkpt lat="43.72915" lon="1.46999">
        <ele>158.75476074219</ele>
        <time>2014-01-04T14:44:28Z</time>
      </trkpt>
      <trkpt lat="43.72907" lon="1.47002">
        <ele>157.79357910156</ele>
        <time>2014-01-04T14:44:33Z</time>
      </trkpt>
      <trkpt lat="43.72904" lon="1.47001">
        <ele>157.79357910156</ele>
        <time>2014-01-04T14:44:36Z</time>
      </trkpt>
      <trkpt lat="43.72897" lon="1.46995">
        <ele>158.27416992188</ele>
        <time>2014-01-04T14:44:41Z</time>
      </trkpt>
      <trkpt lat="43.72887" lon="1.46994">
        <ele>160.67749023438</ele>
        <time>2014-01-04T14:44:47Z</time>
      </trkpt>
      <trkpt lat="43.72882" lon="1.46993">
        <ele>160.67749023438</ele>
        <time>2014-01-04T14:44:50Z</time>
      </trkpt>
      <trkpt lat="43.72874" lon="1.46986">
        <ele>162.11950683594</ele>
        <time>2014-01-04T14:44:56Z</time>
      </trkpt>
      <trkpt lat="43.72869" lon="1.46978">
        <ele>163.08081054688</ele>
        <time>2014-01-04T14:45:02Z</time>
      </trkpt>
      <trkpt lat="43.72864" lon="1.46965">
        <ele>165.96472167969</ele>
        <time>2014-01-04T14:45:07Z</time>
      </trkpt>
      <trkpt lat="43.7286" lon="1.46957">
        <ele>167.40673828125</ele>
        <time>2014-01-04T14:45:10Z</time>
      </trkpt>
      <trkpt lat="43.72861" lon="1.46949">
        <ele>166.92602539062</ele>
        <time>2014-01-04T14:45:14Z</time>
      </trkpt>
      <trkpt lat="43.72859" lon="1.46935">
        <ele>166.4453125</ele>
        <time>2014-01-04T14:45:19Z</time>
      </trkpt>
      <trkpt lat="43.72858" lon="1.46924">
        <ele>168.36804199219</ele>
        <time>2014-01-04T14:45:23Z</time>
      </trkpt>
      <trkpt lat="43.72855" lon="1.46916">
        <ele>168.84875488281</ele>
        <time>2014-01-04T14:45:29Z</time>
      </trkpt>
      <trkpt lat="43.72854" lon="1.46915">
        <ele>168.84875488281</ele>
        <time>2014-01-04T14:45:30Z</time>
      </trkpt>
      <trkpt lat="43.72852" lon="1.46904">
        <ele>168.84875488281</ele>
        <time>2014-01-04T14:45:36Z</time>
      </trkpt>
      <trkpt lat="43.7285" lon="1.46897">
        <ele>167.88732910156</ele>
        <time>2014-01-04T14:45:43Z</time>
      </trkpt>
      <trkpt lat="43.7285" lon="1.46889">
        <ele>167.40673828125</ele>
        <time>2014-01-04T14:45:47Z</time>
      </trkpt>
      <trkpt lat="43.72851" lon="1.46886">
        <ele>167.40673828125</ele>
        <time>2014-01-04T14:45:48Z</time>
      </trkpt>
      <trkpt lat="43.72853" lon="1.46876">
        <ele>166.92602539062</ele>
        <time>2014-01-04T14:45:53Z</time>
      </trkpt>
      <trkpt lat="43.7285" lon="1.46867">
        <ele>166.4453125</ele>
        <time>2014-01-04T14:45:57Z</time>
      </trkpt>
      <trkpt lat="43.72847" lon="1.46857">
        <ele>167.88732910156</ele>
        <time>2014-01-04T14:46:02Z</time>
      </trkpt>
      <trkpt lat="43.72845" lon="1.46855">
        <ele>168.84875488281</ele>
        <time>2014-01-04T14:46:04Z</time>
      </trkpt>
      <trkpt lat="43.72841" lon="1.46854">
        <ele>169.32946777344</ele>
        <time>2014-01-04T14:46:08Z</time>
      </trkpt>
      <trkpt lat="43.72836" lon="1.46844">
        <ele>167.40673828125</ele>
        <time>2014-01-04T14:46:13Z</time>
      </trkpt>
      <trkpt lat="43.72833" lon="1.46837">
        <ele>166.92602539062</ele>
        <time>2014-01-04T14:46:16Z</time>
      </trkpt>
      <trkpt lat="43.72827" lon="1.46828">
        <ele>166.4453125</ele>
        <time>2014-01-04T14:46:20Z</time>
      </trkpt>
      <trkpt lat="43.72825" lon="1.46823">
        <ele>166.92602539062</ele>
        <time>2014-01-04T14:46:22Z</time>
      </trkpt>
      <trkpt lat="43.72818" lon="1.46807">
        <ele>166.92602539062</ele>
        <time>2014-01-04T14:46:29Z</time>
      </trkpt>
      <trkpt lat="43.72815" lon="1.46803">
        <ele>167.88732910156</ele>
        <time>2014-01-04T14:46:31Z</time>
      </trkpt>
      <trkpt lat="43.72809" lon="1.46789">
        <ele>168.36804199219</ele>
        <time>2014-01-04T14:46:37Z</time>
      </trkpt>
      <trkpt lat="43.72802" lon="1.46777">
        <ele>170.77136230469</ele>
        <time>2014-01-04T14:46:43Z</time>
      </trkpt>
      <trkpt lat="43.72797" lon="1.46768">
        <ele>172.21325683594</ele>
        <time>2014-01-04T14:46:48Z</time>
      </trkpt>
      <trkpt lat="43.72794" lon="1.4676">
        <ele>173.17468261719</ele>
        <time>2014-01-04T14:46:51Z</time>
      </trkpt>
      <trkpt lat="43.72788" lon="1.46748">
        <ele>172.69396972656</ele>
        <time>2014-01-04T14:46:58Z</time>
      </trkpt>
      <trkpt lat="43.72783" lon="1.46745">
        <ele>172.21325683594</ele>
        <time>2014-01-04T14:47:03Z</time>
      </trkpt>
      <trkpt lat="43.72778" lon="1.46737">
        <ele>171.25207519531</ele>
        <time>2014-01-04T14:47:07Z</time>
      </trkpt>
      <trkpt lat="43.72767" lon="1.46724">
        <ele>169.81005859375</ele>
        <time>2014-01-04T14:47:13Z</time>
      </trkpt>
      <trkpt lat="43.72758" lon="1.46714">
        <ele>168.84875488281</ele>
        <time>2014-01-04T14:47:18Z</time>
      </trkpt>
      <trkpt lat="43.7275" lon="1.46713">
        <ele>168.84875488281</ele>
        <time>2014-01-04T14:47:23Z</time>
      </trkpt>
      <trkpt lat="43.72741" lon="1.46714">
        <ele>167.40673828125</ele>
        <time>2014-01-04T14:47:29Z</time>
      </trkpt>
      <trkpt lat="43.72736" lon="1.46716">
        <ele>167.40673828125</ele>
        <time>2014-01-04T14:47:33Z</time>
      </trkpt>
      <trkpt lat="43.72726" lon="1.46713">
        <ele>166.92602539062</ele>
        <time>2014-01-04T14:47:39Z</time>
      </trkpt>
      <trkpt lat="43.72717" lon="1.46707">
        <ele>165.48413085938</ele>
        <time>2014-01-04T14:47:44Z</time>
      </trkpt>
      <trkpt lat="43.72713" lon="1.46704">
        <ele>164.04211425781</ele>
        <time>2014-01-04T14:47:48Z</time>
      </trkpt>
      <trkpt lat="43.72707" lon="1.46702">
        <ele>163.5615234375</ele>
        <time>2014-01-04T14:47:54Z</time>
      </trkpt>
      <trkpt lat="43.72701" lon="1.467">
        <ele>162.60009765625</ele>
        <time>2014-01-04T14:48:01Z</time>
      </trkpt>
      <trkpt lat="43.72696" lon="1.46696">
        <ele>162.11950683594</ele>
        <time>2014-01-04T14:48:03Z</time>
      </trkpt>
      <trkpt lat="43.72694" lon="1.46692">
        <ele>162.11950683594</ele>
        <time>2014-01-04T14:48:08Z</time>
      </trkpt>
      <trkpt lat="43.72691" lon="1.46693">
        <ele>162.11950683594</ele>
        <time>2014-01-04T14:48:10Z</time>
      </trkpt>
      <trkpt lat="43.72683" lon="1.46693">
        <ele>161.63891601562</ele>
        <time>2014-01-04T14:48:15Z</time>
      </trkpt>
      <trkpt lat="43.72675" lon="1.46695">
        <ele>161.158203125</ele>
        <time>2014-01-04T14:48:22Z</time>
      </trkpt>
      <trkpt lat="43.72674" lon="1.46696">
        <ele>160.67749023438</ele>
        <time>2014-01-04T14:48:23Z</time>
      </trkpt>
      <trkpt lat="43.72667" lon="1.46697">
        <ele>160.19689941406</ele>
        <time>2014-01-04T14:48:29Z</time>
      </trkpt>
      <trkpt lat="43.72665" lon="1.46697">
        <ele>159.71618652344</ele>
        <time>2014-01-04T14:48:30Z</time>
      </trkpt>
      <trkpt lat="43.72656" lon="1.46692">
        <ele>159.23547363281</ele>
        <time>2014-01-04T14:48:36Z</time>
      </trkpt>
      <trkpt lat="43.72647" lon="1.46685">
        <ele>159.71618652344</ele>
        <time>2014-01-04T14:48:40Z</time>
      </trkpt>
      <trkpt lat="43.72638" lon="1.4668">
        <ele>160.67749023438</ele>
        <time>2014-01-04T14:48:44Z</time>
      </trkpt>
      <trkpt lat="43.72621" lon="1.46672">
        <ele>162.11950683594</ele>
        <time>2014-01-04T14:48:50Z</time>
      </trkpt>
      <trkpt lat="43.72611" lon="1.46672">
        <ele>162.11950683594</ele>
        <time>2014-01-04T14:48:54Z</time>
      </trkpt>
      <trkpt lat="43.72604" lon="1.46674">
        <ele>162.60009765625</ele>
        <time>2014-01-04T14:48:56Z</time>
      </trkpt>
      <trkpt lat="43.72588" lon="1.46676">
        <ele>163.5615234375</ele>
        <time>2014-01-04T14:49:02Z</time>
      </trkpt>
      <trkpt lat="43.72574" lon="1.4668">
        <ele>164.52270507812</ele>
        <time>2014-01-04T14:49:07Z</time>
      </trkpt>
      <trkpt lat="43.72564" lon="1.46685">
        <ele>165.48413085938</ele>
        <time>2014-01-04T14:49:11Z</time>
      </trkpt>
      <trkpt lat="43.72561" lon="1.46676">
        <ele>160.19689941406</ele>
        <time>2014-01-04T14:49:16Z</time>
      </trkpt>
      <trkpt lat="43.72561" lon="1.46666">
        <ele>158.27416992188</ele>
        <time>2014-01-04T14:49:21Z</time>
      </trkpt>
      <trkpt lat="43.72562" lon="1.46662">
        <ele>156.83215332031</ele>
        <time>2014-01-04T14:49:24Z</time>
      </trkpt>
      <trkpt lat="43.72565" lon="1.46654">
        <ele>153.46765136719</ele>
        <time>2014-01-04T14:49:30Z</time>
      </trkpt>
      <trkpt lat="43.72566" lon="1.46646">
        <ele>151.06420898438</ele>
        <time>2014-01-04T14:49:37Z</time>
      </trkpt>
      <trkpt lat="43.7257" lon="1.46639">
        <ele>149.62231445312</ele>
        <time>2014-01-04T14:49:43Z</time>
      </trkpt>
      <trkpt lat="43.72573" lon="1.46631">
        <ele>149.1416015625</ele>
        <time>2014-01-04T14:49:49Z</time>
      </trkpt>
      <trkpt lat="43.72576" lon="1.46628">
        <ele>148.66101074219</ele>
        <time>2014-01-04T14:49:54Z</time>
      </trkpt>
      <trkpt lat="43.72579" lon="1.46623">
        <ele>150.58361816406</ele>
        <time>2014-01-04T14:50:00Z</time>
      </trkpt>
      <trkpt lat="43.72582" lon="1.46616">
        <ele>151.544921875</ele>
        <time>2014-01-04T14:50:08Z</time>
      </trkpt>
      <trkpt lat="43.72583" lon="1.4661">
        <ele>156.83215332031</ele>
        <time>2014-01-04T14:50:15Z</time>
      </trkpt>
      <trkpt lat="43.72585" lon="1.46604">
        <ele>158.75476074219</ele>
        <time>2014-01-04T14:50:21Z</time>
      </trkpt>
      <trkpt lat="43.72586" lon="1.46601">
        <ele>158.75476074219</ele>
        <time>2014-01-04T14:50:26Z</time>
      </trkpt>
      <trkpt lat="43.72588" lon="1.46598">
        <ele>159.71618652344</ele>
        <time>2014-01-04T14:50:32Z</time>
      </trkpt>
      <trkpt lat="43.7259" lon="1.46597">
        <ele>159.71618652344</ele>
        <time>2014-01-04T14:50:36Z</time>
      </trkpt>
      <trkpt lat="43.72592" lon="1.46594">
        <ele>161.158203125</ele>
        <time>2014-01-04T14:50:41Z</time>
      </trkpt>
      <trkpt lat="43.72594" lon="1.46591">
        <ele>161.158203125</ele>
        <time>2014-01-04T14:50:45Z</time>
      </trkpt>
      <trkpt lat="43.72597" lon="1.46586">
        <ele>163.5615234375</ele>
        <time>2014-01-04T14:50:52Z</time>
      </trkpt>
      <trkpt lat="43.72599" lon="1.46581">
        <ele>163.5615234375</ele>
        <time>2014-01-04T14:50:57Z</time>
      </trkpt>
      <trkpt lat="43.726" lon="1.46578">
        <ele>165.48413085938</ele>
        <time>2014-01-04T14:51:02Z</time>
      </trkpt>
      <trkpt lat="43.72602" lon="1.46575">
        <ele>166.4453125</ele>
        <time>2014-01-04T14:51:09Z</time>
      </trkpt>
      <trkpt lat="43.72604" lon="1.46571">
        <ele>166.92602539062</ele>
        <time>2014-01-04T14:51:14Z</time>
      </trkpt>
      <trkpt lat="43.72606" lon="1.46566">
        <ele>168.36804199219</ele>
        <time>2014-01-04T14:51:20Z</time>
      </trkpt>
      <trkpt lat="43.72602" lon="1.46565">
        <ele>169.32946777344</ele>
        <time>2014-01-04T14:51:24Z</time>
      </trkpt>
      <trkpt lat="43.72598" lon="1.46564">
        <ele>169.32946777344</ele>
        <time>2014-01-04T14:51:29Z</time>
      </trkpt>
      <trkpt lat="43.72597" lon="1.46564">
        <ele>169.32946777344</ele>
        <time>2014-01-04T14:51:30Z</time>
      </trkpt>
      <trkpt lat="43.72589" lon="1.46563">
        <ele>169.81005859375</ele>
        <time>2014-01-04T14:51:35Z</time>
      </trkpt>
      <trkpt lat="43.72578" lon="1.4656">
        <ele>171.25207519531</ele>
        <time>2014-01-04T14:51:40Z</time>
      </trkpt>
      <trkpt lat="43.72577" lon="1.4656">
        <ele>171.25207519531</ele>
        <time>2014-01-04T14:51:41Z</time>
      </trkpt>
      <trkpt lat="43.72564" lon="1.46561">
        <ele>172.69396972656</ele>
        <time>2014-01-04T14:51:47Z</time>
      </trkpt>
      <trkpt lat="43.72549" lon="1.46559">
        <ele>173.6552734375</ele>
        <time>2014-01-04T14:51:54Z</time>
      </trkpt>
      <trkpt lat="43.72539" lon="1.46556">
        <ele>174.13586425781</ele>
        <time>2014-01-04T14:51:59Z</time>
      </trkpt>
      <trkpt lat="43.72526" lon="1.46557">
        <ele>174.61657714844</ele>
        <time>2014-01-04T14:52:04Z</time>
      </trkpt>
      <trkpt lat="43.72516" lon="1.46552">
        <ele>175.57788085938</ele>
        <time>2014-01-04T14:52:09Z</time>
      </trkpt>
      <trkpt lat="43.72511" lon="1.46551">
        <ele>176.05859375</ele>
        <time>2014-01-04T14:52:11Z</time>
      </trkpt>
      <trkpt lat="43.72502" lon="1.46541">
        <ele>177.50061035156</ele>
        <time>2014-01-04T14:52:16Z</time>
      </trkpt>
      <trkpt lat="43.72499" lon="1.46533">
        <ele>177.50061035156</ele>
        <time>2014-01-04T14:52:19Z</time>
      </trkpt>
      <trkpt lat="43.72498" lon="1.46508">
        <ele>176.53930664062</ele>
        <time>2014-01-04T14:52:25Z</time>
      </trkpt>
      <trkpt lat="43.72499" lon="1.46493">
        <ele>179.42321777344</ele>
        <time>2014-01-04T14:52:29Z</time>
      </trkpt>
      <trkpt lat="43.725" lon="1.46475">
        <ele>180.865234375</ele>
        <time>2014-01-04T14:52:34Z</time>
      </trkpt>
      <trkpt lat="43.72502" lon="1.46456">
        <ele>181.34582519531</ele>
        <time>2014-01-04T14:52:39Z</time>
      </trkpt>
      <trkpt lat="43.72503" lon="1.46453">
        <ele>181.34582519531</ele>
        <time>2014-01-04T14:52:40Z</time>
      </trkpt>
      <trkpt lat="43.72502" lon="1.46439">
        <ele>181.82641601562</ele>
        <time>2014-01-04T14:52:44Z</time>
      </trkpt>
      <trkpt lat="43.725" lon="1.46422">
        <ele>182.30712890625</ele>
        <time>2014-01-04T14:52:49Z</time>
      </trkpt>
      <trkpt lat="43.72498" lon="1.46405">
        <ele>182.78784179688</ele>
        <time>2014-01-04T14:52:54Z</time>
      </trkpt>
      <trkpt lat="43.72494" lon="1.46389">
        <ele>183.7490234375</ele>
        <time>2014-01-04T14:52:59Z</time>
      </trkpt>
      <trkpt lat="43.72493" lon="1.46372">
        <ele>184.22985839844</ele>
        <time>2014-01-04T14:53:05Z</time>
      </trkpt>
      <trkpt lat="43.7249" lon="1.46354">
        <ele>184.71057128906</ele>
        <time>2014-01-04T14:53:10Z</time>
      </trkpt>
      <trkpt lat="43.7249" lon="1.46348">
        <ele>184.22985839844</ele>
        <time>2014-01-04T14:53:12Z</time>
      </trkpt>
      <trkpt lat="43.72485" lon="1.46337">
        <ele>182.78784179688</ele>
        <time>2014-01-04T14:53:17Z</time>
      </trkpt>
      <trkpt lat="43.72479" lon="1.46328">
        <ele>180.865234375</ele>
        <time>2014-01-04T14:53:22Z</time>
      </trkpt>
      <trkpt lat="43.72473" lon="1.46315">
        <ele>179.42321777344</ele>
        <time>2014-01-04T14:53:27Z</time>
      </trkpt>
      <trkpt lat="43.72468" lon="1.46304">
        <ele>179.42321777344</ele>
        <time>2014-01-04T14:53:31Z</time>
      </trkpt>
      <trkpt lat="43.72463" lon="1.46292">
        <ele>178.4619140625</ele>
        <time>2014-01-04T14:53:35Z</time>
      </trkpt>
      <trkpt lat="43.72458" lon="1.46278">
        <ele>178.94262695312</ele>
        <time>2014-01-04T14:53:40Z</time>
      </trkpt>
      <trkpt lat="43.7245" lon="1.46258">
        <ele>179.42321777344</ele>
        <time>2014-01-04T14:53:46Z</time>
      </trkpt>
      <trkpt lat="43.72445" lon="1.46245">
        <ele>178.4619140625</ele>
        <time>2014-01-04T14:53:50Z</time>
      </trkpt>
      <trkpt lat="43.72441" lon="1.46236">
        <ele>178.94262695312</ele>
        <time>2014-01-04T14:53:53Z</time>
      </trkpt>
      <trkpt lat="43.72433" lon="1.46222">
        <ele>180.38452148438</ele>
        <time>2014-01-04T14:53:58Z</time>
      </trkpt>
      <trkpt lat="43.72427" lon="1.46212">
        <ele>180.38452148438</ele>
        <time>2014-01-04T14:54:02Z</time>
      </trkpt>
      <trkpt lat="43.72423" lon="1.46202">
        <ele>179.42321777344</ele>
        <time>2014-01-04T14:54:06Z</time>
      </trkpt>
      <trkpt lat="43.72422" lon="1.46201">
        <ele>179.42321777344</ele>
        <time>2014-01-04T14:54:08Z</time>
      </trkpt>
      <trkpt lat="43.72422" lon="1.46205">
        <ele>176.53930664062</ele>
        <time>2014-01-04T14:54:11Z</time>
      </trkpt>
      <trkpt lat="43.72422" lon="1.4622">
        <ele>171.25207519531</ele>
        <time>2014-01-04T14:54:16Z</time>
      </trkpt>
      <trkpt lat="43.72422" lon="1.46231">
        <ele>170.77136230469</ele>
        <time>2014-01-04T14:54:19Z</time>
      </trkpt>
      <trkpt lat="43.72425" lon="1.46246">
        <ele>167.40673828125</ele>
        <time>2014-01-04T14:54:24Z</time>
      </trkpt>
      <trkpt lat="43.72429" lon="1.46266">
        <ele>164.04211425781</ele>
        <time>2014-01-04T14:54:29Z</time>
      </trkpt>
      <trkpt lat="43.72436" lon="1.46279">
        <ele>158.27416992188</ele>
        <time>2014-01-04T14:54:34Z</time>
      </trkpt>
      <trkpt lat="43.72441" lon="1.46289">
        <ele>156.83215332031</ele>
        <time>2014-01-04T14:54:39Z</time>
      </trkpt>
      <trkpt lat="43.72447" lon="1.46304">
        <ele>153.46765136719</ele>
        <time>2014-01-04T14:54:45Z</time>
      </trkpt>
      <trkpt lat="43.72451" lon="1.4632">
        <ele>149.1416015625</ele>
        <time>2014-01-04T14:54:50Z</time>
      </trkpt>
      <trkpt lat="43.72454" lon="1.4634">
        <ele>145.77709960938</ele>
        <time>2014-01-04T14:54:55Z</time>
      </trkpt>
      <trkpt lat="43.72454" lon="1.46349">
        <ele>144.81579589844</ele>
        <time>2014-01-04T14:54:58Z</time>
      </trkpt>
      <trkpt lat="43.7245" lon="1.46354">
        <ele>143.85437011719</ele>
        <time>2014-01-04T14:55:01Z</time>
      </trkpt>
      <trkpt lat="43.72443" lon="1.46343">
        <ele>145.77709960938</ele>
        <time>2014-01-04T14:55:06Z</time>
      </trkpt>
      <trkpt lat="43.72434" lon="1.46328">
        <ele>151.06420898438</ele>
        <time>2014-01-04T14:55:12Z</time>
      </trkpt>
      <trkpt lat="43.72427" lon="1.46316">
        <ele>155.87097167969</ele>
        <time>2014-01-04T14:55:17Z</time>
      </trkpt>
      <trkpt lat="43.72423" lon="1.46304">
        <ele>157.79357910156</ele>
        <time>2014-01-04T14:55:21Z</time>
      </trkpt>
      <trkpt lat="43.72418" lon="1.46287">
        <ele>161.158203125</ele>
        <time>2014-01-04T14:55:26Z</time>
      </trkpt>
      <trkpt lat="43.72411" lon="1.46268">
        <ele>166.92602539062</ele>
        <time>2014-01-04T14:55:31Z</time>
      </trkpt>
      <trkpt lat="43.72404" lon="1.46251">
        <ele>169.81005859375</ele>
        <time>2014-01-04T14:55:37Z</time>
      </trkpt>
      <trkpt lat="43.72395" lon="1.4624">
        <ele>171.25207519531</ele>
        <time>2014-01-04T14:55:42Z</time>
      </trkpt>
      <trkpt lat="43.72385" lon="1.46227">
        <ele>170.77136230469</ele>
        <time>2014-01-04T14:55:47Z</time>
      </trkpt>
      <trkpt lat="43.72377" lon="1.46218">
        <ele>168.84875488281</ele>
        <time>2014-01-04T14:55:51Z</time>
      </trkpt>
      <trkpt lat="43.72366" lon="1.46196">
        <ele>164.52270507812</ele>
        <time>2014-01-04T14:55:58Z</time>
      </trkpt>
      <trkpt lat="43.72355" lon="1.46179">
        <ele>163.5615234375</ele>
        <time>2014-01-04T14:56:03Z</time>
      </trkpt>
      <trkpt lat="43.72348" lon="1.46166">
        <ele>161.63891601562</ele>
        <time>2014-01-04T14:56:08Z</time>
      </trkpt>
      <trkpt lat="43.72341" lon="1.46151">
        <ele>160.19689941406</ele>
        <time>2014-01-04T14:56:13Z</time>
      </trkpt>
      <trkpt lat="43.72335" lon="1.46138">
        <ele>161.158203125</ele>
        <time>2014-01-04T14:56:17Z</time>
      </trkpt>
      <trkpt lat="43.72331" lon="1.46124">
        <ele>158.75476074219</ele>
        <time>2014-01-04T14:56:21Z</time>
      </trkpt>
      <trkpt lat="43.72329" lon="1.46109">
        <ele>155.39025878906</ele>
        <time>2014-01-04T14:56:25Z</time>
      </trkpt>
      <trkpt lat="43.7233" lon="1.46095">
        <ele>153.46765136719</ele>
        <time>2014-01-04T14:56:29Z</time>
      </trkpt>
      <trkpt lat="43.72332" lon="1.46078">
        <ele>151.06420898438</ele>
        <time>2014-01-04T14:56:34Z</time>
      </trkpt>
      <trkpt lat="43.72333" lon="1.46074">
        <ele>151.06420898438</ele>
        <time>2014-01-04T14:56:36Z</time>
      </trkpt>
      <trkpt lat="43.72336" lon="1.46067">
        <ele>149.1416015625</ele>
        <time>2014-01-04T14:56:39Z</time>
      </trkpt>
      <trkpt lat="43.72338" lon="1.46058">
        <ele>146.73840332031</ele>
        <time>2014-01-04T14:56:43Z</time>
      </trkpt>
      <trkpt lat="43.72346" lon="1.46043">
        <ele>142.89306640625</ele>
        <time>2014-01-04T14:56:51Z</time>
      </trkpt>
      <trkpt lat="43.72352" lon="1.46033">
        <ele>145.77709960938</ele>
        <time>2014-01-04T14:56:57Z</time>
      </trkpt>
      <trkpt lat="43.72355" lon="1.46028">
        <ele>148.18041992188</ele>
        <time>2014-01-04T14:57:00Z</time>
      </trkpt>
      <trkpt lat="43.72361" lon="1.46014">
        <ele>151.06420898438</ele>
        <time>2014-01-04T14:57:06Z</time>
      </trkpt>
      <trkpt lat="43.72364" lon="1.46009">
        <ele>151.06420898438</ele>
        <time>2014-01-04T14:57:10Z</time>
      </trkpt>
      <trkpt lat="43.72368" lon="1.46">
        <ele>153.46765136719</ele>
        <time>2014-01-04T14:57:16Z</time>
      </trkpt>
      <trkpt lat="43.72371" lon="1.45994">
        <ele>155.39025878906</ele>
        <time>2014-01-04T14:57:21Z</time>
      </trkpt>
      <trkpt lat="43.7237" lon="1.45987">
        <ele>157.79357910156</ele>
        <time>2014-01-04T14:57:25Z</time>
      </trkpt>
      <trkpt lat="43.72365" lon="1.45987">
        <ele>158.75476074219</ele>
        <time>2014-01-04T14:57:28Z</time>
      </trkpt>
      <trkpt lat="43.72362" lon="1.45991">
        <ele>160.19689941406</ele>
        <time>2014-01-04T14:57:31Z</time>
      </trkpt>
      <trkpt lat="43.72353" lon="1.45998">
        <ele>157.79357910156</ele>
        <time>2014-01-04T14:57:36Z</time>
      </trkpt>
      <trkpt lat="43.72349" lon="1.46001">
        <ele>156.83215332031</ele>
        <time>2014-01-04T14:57:38Z</time>
      </trkpt>
      <trkpt lat="43.72346" lon="1.46015">
        <ele>154.90954589844</ele>
        <time>2014-01-04T14:57:43Z</time>
      </trkpt>
      <trkpt lat="43.72339" lon="1.46021">
        <ele>152.98693847656</ele>
        <time>2014-01-04T14:57:47Z</time>
      </trkpt>
      <trkpt lat="43.7233" lon="1.46017">
        <ele>152.50634765625</ele>
        <time>2014-01-04T14:57:52Z</time>
      </trkpt>
      <trkpt lat="43.72323" lon="1.46017">
        <ele>152.50634765625</ele>
        <time>2014-01-04T14:57:56Z</time>
      </trkpt>
      <trkpt lat="43.72321" lon="1.46011">
        <ele>151.06420898438</ele>
        <time>2014-01-04T14:58:00Z</time>
      </trkpt>
      <trkpt lat="43.7232" lon="1.46006">
        <ele>150.58361816406</ele>
        <time>2014-01-04T14:58:02Z</time>
      </trkpt>
      <trkpt lat="43.72318" lon="1.45992">
        <ele>147.69970703125</ele>
        <time>2014-01-04T14:58:08Z</time>
      </trkpt>
      <trkpt lat="43.72317" lon="1.45979">
        <ele>145.77709960938</ele>
        <time>2014-01-04T14:58:13Z</time>
      </trkpt>
      <trkpt lat="43.72315" lon="1.45969">
        <ele>145.29638671875</ele>
        <time>2014-01-04T14:58:16Z</time>
      </trkpt>
      <trkpt lat="43.72316" lon="1.45957">
        <ele>147.69970703125</ele>
        <time>2014-01-04T14:58:21Z</time>
      </trkpt>
      <trkpt lat="43.72319" lon="1.4595">
        <ele>147.69970703125</ele>
        <time>2014-01-04T14:58:25Z</time>
      </trkpt>
      <trkpt lat="43.72316" lon="1.45946">
        <ele>149.1416015625</ele>
        <time>2014-01-04T14:58:29Z</time>
      </trkpt>
      <trkpt lat="43.72314" lon="1.45943">
        <ele>149.1416015625</ele>
        <time>2014-01-04T14:58:34Z</time>
      </trkpt>
      <trkpt lat="43.72311" lon="1.45939">
        <ele>150.10302734375</ele>
        <time>2014-01-04T14:58:37Z</time>
      </trkpt>
      <trkpt lat="43.72301" lon="1.45942">
        <ele>152.98693847656</ele>
        <time>2014-01-04T14:58:42Z</time>
      </trkpt>
      <trkpt lat="43.72294" lon="1.45939">
        <ele>152.50634765625</ele>
        <time>2014-01-04T14:58:46Z</time>
      </trkpt>
      <trkpt lat="43.7229" lon="1.45937">
        <ele>152.02575683594</ele>
        <time>2014-01-04T14:58:48Z</time>
      </trkpt>
      <trkpt lat="43.72281" lon="1.45921">
        <ele>152.98693847656</ele>
        <time>2014-01-04T14:58:54Z</time>
      </trkpt>
      <trkpt lat="43.72273" lon="1.45912">
        <ele>152.98693847656</ele>
        <time>2014-01-04T14:58:58Z</time>
      </trkpt>
      <trkpt lat="43.72268" lon="1.45908">
        <ele>152.50634765625</ele>
        <time>2014-01-04T14:59:02Z</time>
      </trkpt>
      <trkpt lat="43.72263" lon="1.45907">
        <ele>152.02575683594</ele>
        <time>2014-01-04T14:59:06Z</time>
      </trkpt>
      <trkpt lat="43.72261" lon="1.45913">
        <ele>148.66101074219</ele>
        <time>2014-01-04T14:59:13Z</time>
      </trkpt>
      <trkpt lat="43.72262" lon="1.45916">
        <ele>147.69970703125</ele>
        <time>2014-01-04T14:59:15Z</time>
      </trkpt>
      <trkpt lat="43.72264" lon="1.45922">
        <ele>147.21899414062</ele>
        <time>2014-01-04T14:59:20Z</time>
      </trkpt>
      <trkpt lat="43.7227" lon="1.45928">
        <ele>145.77709960938</ele>
        <time>2014-01-04T14:59:24Z</time>
      </trkpt>
      <trkpt lat="43.72276" lon="1.45936">
        <ele>144.33520507812</ele>
        <time>2014-01-04T14:59:29Z</time>
      </trkpt>
      <trkpt lat="43.72277" lon="1.45939">
        <ele>144.33520507812</ele>
        <time>2014-01-04T14:59:31Z</time>
      </trkpt>
      <trkpt lat="43.72285" lon="1.45954">
        <ele>143.85437011719</ele>
        <time>2014-01-04T14:59:38Z</time>
      </trkpt>
      <trkpt lat="43.72286" lon="1.45958">
        <ele>143.85437011719</ele>
        <time>2014-01-04T14:59:40Z</time>
      </trkpt>
      <trkpt lat="43.72291" lon="1.45971">
        <ele>144.33520507812</ele>
        <time>2014-01-04T14:59:46Z</time>
      </trkpt>
      <trkpt lat="43.72295" lon="1.45987">
        <ele>145.77709960938</ele>
        <time>2014-01-04T14:59:52Z</time>
      </trkpt>
      <trkpt lat="43.72295" lon="1.45999">
        <ele>145.77709960938</ele>
        <time>2014-01-04T14:59:57Z</time>
      </trkpt>
      <trkpt lat="43.723" lon="1.46011">
        <ele>144.33520507812</ele>
        <time>2014-01-04T15:00:02Z</time>
      </trkpt>
      <trkpt lat="43.72302" lon="1.46021">
        <ele>142.41247558594</ele>
        <time>2014-01-04T15:00:05Z</time>
      </trkpt>
      <trkpt lat="43.72309" lon="1.46045">
        <ele>137.60583496094</ele>
        <time>2014-01-04T15:00:12Z</time>
      </trkpt>
      <trkpt lat="43.72311" lon="1.46064">
        <ele>135.20251464844</ele>
        <time>2014-01-04T15:00:17Z</time>
      </trkpt>
      <trkpt lat="43.72312" lon="1.46069">
        <ele>135.20251464844</ele>
        <time>2014-01-04T15:00:19Z</time>
      </trkpt>
      <trkpt lat="43.72312" lon="1.4609">
        <ele>136.64465332031</ele>
        <time>2014-01-04T15:00:25Z</time>
      </trkpt>
      <trkpt lat="43.72313" lon="1.46106">
        <ele>137.12524414062</ele>
        <time>2014-01-04T15:00:29Z</time>
      </trkpt>
      <trkpt lat="43.72316" lon="1.46122">
        <ele>135.68310546875</ele>
        <time>2014-01-04T15:00:34Z</time>
      </trkpt>
      <trkpt lat="43.72316" lon="1.46139">
        <ele>135.20251464844</ele>
        <time>2014-01-04T15:00:39Z</time>
      </trkpt>
      <trkpt lat="43.72316" lon="1.46155">
        <ele>135.20251464844</ele>
        <time>2014-01-04T15:00:43Z</time>
      </trkpt>
      <trkpt lat="43.72311" lon="1.46167">
        <ele>136.16394042969</ele>
        <time>2014-01-04T15:00:47Z</time>
      </trkpt>
      <trkpt lat="43.72311" lon="1.4617">
        <ele>137.12524414062</ele>
        <time>2014-01-04T15:00:49Z</time>
      </trkpt>
      <trkpt lat="43.72315" lon="1.46176">
        <ele>141.45104980469</ele>
        <time>2014-01-04T15:00:56Z</time>
      </trkpt>
      <trkpt lat="43.72316" lon="1.46183">
        <ele>143.85437011719</ele>
        <time>2014-01-04T15:01:01Z</time>
      </trkpt>
      <trkpt lat="43.72314" lon="1.46195">
        <ele>144.33520507812</ele>
        <time>2014-01-04T15:01:07Z</time>
      </trkpt>
      <trkpt lat="43.72313" lon="1.46207">
        <ele>143.85437011719</ele>
        <time>2014-01-04T15:01:12Z</time>
      </trkpt>
      <trkpt lat="43.72311" lon="1.46212">
        <ele>143.37365722656</ele>
        <time>2014-01-04T15:01:14Z</time>
      </trkpt>
      <trkpt lat="43.72312" lon="1.46215">
        <ele>141.93176269531</ele>
        <time>2014-01-04T15:01:16Z</time>
      </trkpt>
      <trkpt lat="43.72312" lon="1.46221">
        <ele>142.89306640625</ele>
        <time>2014-01-04T15:01:21Z</time>
      </trkpt>
      <trkpt lat="43.72313" lon="1.46228">
        <ele>140.48986816406</ele>
        <time>2014-01-04T15:01:25Z</time>
      </trkpt>
      <trkpt lat="43.72313" lon="1.4624">
        <ele>144.33520507812</ele>
        <time>2014-01-04T15:01:32Z</time>
      </trkpt>
      <trkpt lat="43.72316" lon="1.46255">
        <ele>142.89306640625</ele>
        <time>2014-01-04T15:01:37Z</time>
      </trkpt>
      <trkpt lat="43.7232" lon="1.46264">
        <ele>140.97045898438</ele>
        <time>2014-01-04T15:01:42Z</time>
      </trkpt>
      <trkpt lat="43.72322" lon="1.46269">
        <ele>140.00915527344</ele>
        <time>2014-01-04T15:01:44Z</time>
      </trkpt>
      <trkpt lat="43.72326" lon="1.46284">
        <ele>138.56726074219</ele>
        <time>2014-01-04T15:01:50Z</time>
      </trkpt>
      <trkpt lat="43.7233" lon="1.46297">
        <ele>134.72192382812</ele>
        <time>2014-01-04T15:01:56Z</time>
      </trkpt>
      <trkpt lat="43.72332" lon="1.46309">
        <ele>131.837890625</ele>
        <time>2014-01-04T15:02:01Z</time>
      </trkpt>
      <trkpt lat="43.72332" lon="1.46321">
        <ele>132.31860351562</ele>
        <time>2014-01-04T15:02:07Z</time>
      </trkpt>
      <trkpt lat="43.72331" lon="1.46323">
        <ele>132.79931640625</ele>
        <time>2014-01-04T15:02:09Z</time>
      </trkpt>
      <trkpt lat="43.72334" lon="1.46335">
        <ele>132.31860351562</ele>
        <time>2014-01-04T15:02:16Z</time>
      </trkpt>
      <trkpt lat="43.72332" lon="1.46348">
        <ele>135.68310546875</ele>
        <time>2014-01-04T15:02:21Z</time>
      </trkpt>
      <trkpt lat="43.72335" lon="1.46354">
        <ele>135.20251464844</ele>
        <time>2014-01-04T15:02:24Z</time>
      </trkpt>
      <trkpt lat="43.72338" lon="1.46361">
        <ele>134.72192382812</ele>
        <time>2014-01-04T15:02:27Z</time>
      </trkpt>
      <trkpt lat="43.72341" lon="1.46374">
        <ele>133.76049804688</ele>
        <time>2014-01-04T15:02:32Z</time>
      </trkpt>
      <trkpt lat="43.72345" lon="1.46387">
        <ele>131.837890625</ele>
        <time>2014-01-04T15:02:37Z</time>
      </trkpt>
      <trkpt lat="43.72351" lon="1.464">
        <ele>130.87670898438</ele>
        <time>2014-01-04T15:02:43Z</time>
      </trkpt>
      <trkpt lat="43.72355" lon="1.46413">
        <ele>129.43469238281</ele>
        <time>2014-01-04T15:02:48Z</time>
      </trkpt>
      <trkpt lat="43.72358" lon="1.46429">
        <ele>126.55065917969</ele>
        <time>2014-01-04T15:02:54Z</time>
      </trkpt>
      <trkpt lat="43.72361" lon="1.46446">
        <ele>126.06994628906</ele>
        <time>2014-01-04T15:03:00Z</time>
      </trkpt>
      <trkpt lat="43.7236" lon="1.46457">
        <ele>127.99255371094</ele>
        <time>2014-01-04T15:03:05Z</time>
      </trkpt>
      <trkpt lat="43.72363" lon="1.46473">
        <ele>128.9541015625</ele>
        <time>2014-01-04T15:03:12Z</time>
      </trkpt>
      <trkpt lat="43.72366" lon="1.46485">
        <ele>130.39599609375</ele>
        <time>2014-01-04T15:03:17Z</time>
      </trkpt>
      <trkpt lat="43.72367" lon="1.46497">
        <ele>130.87670898438</ele>
        <time>2014-01-04T15:03:21Z</time>
      </trkpt>
      <trkpt lat="43.72368" lon="1.46505">
        <ele>133.27990722656</ele>
        <time>2014-01-04T15:03:25Z</time>
      </trkpt>
      <trkpt lat="43.72369" lon="1.46512">
        <ele>133.76049804688</ele>
        <time>2014-01-04T15:03:28Z</time>
      </trkpt>
      <trkpt lat="43.72367" lon="1.46523">
        <ele>135.20251464844</ele>
        <time>2014-01-04T15:03:34Z</time>
      </trkpt>
      <trkpt lat="43.72366" lon="1.46531">
        <ele>135.20251464844</ele>
        <time>2014-01-04T15:03:37Z</time>
      </trkpt>
      <trkpt lat="43.72365" lon="1.46537">
        <ele>135.68310546875</ele>
        <time>2014-01-04T15:03:39Z</time>
      </trkpt>
      <trkpt lat="43.72364" lon="1.46548">
        <ele>136.64465332031</ele>
        <time>2014-01-04T15:03:44Z</time>
      </trkpt>
      <trkpt lat="43.72358" lon="1.4656">
        <ele>140.97045898438</ele>
        <time>2014-01-04T15:03:51Z</time>
      </trkpt>
      <trkpt lat="43.72352" lon="1.46565">
        <ele>142.41247558594</ele>
        <time>2014-01-04T15:03:55Z</time>
      </trkpt>
      <trkpt lat="43.72347" lon="1.46567">
        <ele>143.85437011719</ele>
        <time>2014-01-04T15:03:58Z</time>
      </trkpt>
      <trkpt lat="43.72343" lon="1.46566">
        <ele>144.33520507812</ele>
        <time>2014-01-04T15:04:00Z</time>
      </trkpt>
      <trkpt lat="43.72334" lon="1.4657">
        <ele>148.18041992188</ele>
        <time>2014-01-04T15:04:06Z</time>
      </trkpt>
      <trkpt lat="43.72328" lon="1.46569">
        <ele>148.66101074219</ele>
        <time>2014-01-04T15:04:10Z</time>
      </trkpt>
      <trkpt lat="43.72322" lon="1.46561">
        <ele>151.544921875</ele>
        <time>2014-01-04T15:04:16Z</time>
      </trkpt>
      <trkpt lat="43.72319" lon="1.4656">
        <ele>152.50634765625</ele>
        <time>2014-01-04T15:04:18Z</time>
      </trkpt>
      <trkpt lat="43.72315" lon="1.46557">
        <ele>153.46765136719</ele>
        <time>2014-01-04T15:04:20Z</time>
      </trkpt>
      <trkpt lat="43.72311" lon="1.4655">
        <ele>154.90954589844</ele>
        <time>2014-01-04T15:04:24Z</time>
      </trkpt>
      <trkpt lat="43.72302" lon="1.46542">
        <ele>156.3515625</ele>
        <time>2014-01-04T15:04:29Z</time>
      </trkpt>
      <trkpt lat="43.72297" lon="1.4654">
        <ele>155.87097167969</ele>
        <time>2014-01-04T15:04:32Z</time>
      </trkpt>
      <trkpt lat="43.72289" lon="1.46537">
        <ele>154.90954589844</ele>
        <time>2014-01-04T15:04:37Z</time>
      </trkpt>
      <trkpt lat="43.72279" lon="1.46528">
        <ele>155.39025878906</ele>
        <time>2014-01-04T15:04:42Z</time>
      </trkpt>
      <trkpt lat="43.72274" lon="1.46521">
        <ele>154.90954589844</ele>
        <time>2014-01-04T15:04:45Z</time>
      </trkpt>
      <trkpt lat="43.72268" lon="1.46514">
        <ele>156.3515625</ele>
        <time>2014-01-04T15:04:49Z</time>
      </trkpt>
      <trkpt lat="43.72261" lon="1.46507">
        <ele>157.31286621094</ele>
        <time>2014-01-04T15:04:54Z</time>
      </trkpt>
      <trkpt lat="43.72254" lon="1.46505">
        <ele>157.79357910156</ele>
        <time>2014-01-04T15:04:57Z</time>
      </trkpt>
      <trkpt lat="43.72246" lon="1.46497">
        <ele>160.19689941406</ele>
        <time>2014-01-04T15:05:03Z</time>
      </trkpt>
      <trkpt lat="43.72238" lon="1.4649">
        <ele>161.158203125</ele>
        <time>2014-01-04T15:05:08Z</time>
      </trkpt>
      <trkpt lat="43.72231" lon="1.46485">
        <ele>161.158203125</ele>
        <time>2014-01-04T15:05:13Z</time>
      </trkpt>
      <trkpt lat="43.72226" lon="1.46483">
        <ele>161.158203125</ele>
        <time>2014-01-04T15:05:16Z</time>
      </trkpt>
      <trkpt lat="43.72218" lon="1.4648">
        <ele>161.158203125</ele>
        <time>2014-01-04T15:05:21Z</time>
      </trkpt>
      <trkpt lat="43.72217" lon="1.46484">
        <ele>161.158203125</ele>
        <time>2014-01-04T15:05:22Z</time>
      </trkpt>
      <trkpt lat="43.72209" lon="1.46501">
        <ele>163.5615234375</ele>
        <time>2014-01-04T15:05:28Z</time>
      </trkpt>
      <trkpt lat="43.72202" lon="1.46515">
        <ele>164.52270507812</ele>
        <time>2014-01-04T15:05:33Z</time>
      </trkpt>
      <trkpt lat="43.72195" lon="1.46525">
        <ele>165.48413085938</ele>
        <time>2014-01-04T15:05:38Z</time>
      </trkpt>
      <trkpt lat="43.72193" lon="1.4653">
        <ele>165.96472167969</ele>
        <time>2014-01-04T15:05:40Z</time>
      </trkpt>
      <trkpt lat="43.72187" lon="1.46541">
        <ele>165.96472167969</ele>
        <time>2014-01-04T15:05:45Z</time>
      </trkpt>
      <trkpt lat="43.72182" lon="1.46555">
        <ele>165.48413085938</ele>
        <time>2014-01-04T15:05:51Z</time>
      </trkpt>
      <trkpt lat="43.72176" lon="1.46568">
        <ele>165.00341796875</ele>
        <time>2014-01-04T15:05:56Z</time>
      </trkpt>
      <trkpt lat="43.72172" lon="1.46582">
        <ele>165.48413085938</ele>
        <time>2014-01-04T15:06:01Z</time>
      </trkpt>
      <trkpt lat="43.72173" lon="1.4659">
        <ele>163.5615234375</ele>
        <time>2014-01-04T15:06:06Z</time>
      </trkpt>
      <trkpt lat="43.72168" lon="1.46592">
        <ele>162.11950683594</ele>
        <time>2014-01-04T15:06:10Z</time>
      </trkpt>
      <trkpt lat="43.72159" lon="1.46591">
        <ele>162.60009765625</ele>
        <time>2014-01-04T15:06:15Z</time>
      </trkpt>
      <trkpt lat="43.72152" lon="1.46591">
        <ele>162.60009765625</ele>
        <time>2014-01-04T15:06:21Z</time>
      </trkpt>
      <trkpt lat="43.72141" lon="1.4659">
        <ele>161.158203125</ele>
        <time>2014-01-04T15:06:29Z</time>
      </trkpt>
      <trkpt lat="43.72139" lon="1.4659">
        <ele>161.158203125</ele>
        <time>2014-01-04T15:06:31Z</time>
      </trkpt>
      <trkpt lat="43.72128" lon="1.4659">
        <ele>163.08081054688</ele>
        <time>2014-01-04T15:06:40Z</time>
      </trkpt>
      <trkpt lat="43.72127" lon="1.4659">
        <ele>163.08081054688</ele>
        <time>2014-01-04T15:06:41Z</time>
      </trkpt>
      <trkpt lat="43.72118" lon="1.46596">
        <ele>165.00341796875</ele>
        <time>2014-01-04T15:06:45Z</time>
      </trkpt>
      <trkpt lat="43.72115" lon="1.46595">
        <ele>165.96472167969</ele>
        <time>2014-01-04T15:06:46Z</time>
      </trkpt>
      <trkpt lat="43.72103" lon="1.46596">
        <ele>167.40673828125</ele>
        <time>2014-01-04T15:06:51Z</time>
      </trkpt>
      <trkpt lat="43.72092" lon="1.46598">
        <ele>168.36804199219</ele>
        <time>2014-01-04T15:06:56Z</time>
      </trkpt>
      <trkpt lat="43.72081" lon="1.466">
        <ele>168.84875488281</ele>
        <time>2014-01-04T15:07:01Z</time>
      </trkpt>
      <trkpt lat="43.72071" lon="1.466">
        <ele>170.29064941406</ele>
        <time>2014-01-04T15:07:06Z</time>
      </trkpt>
      <trkpt lat="43.72066" lon="1.46599">
        <ele>169.81005859375</ele>
        <time>2014-01-04T15:07:08Z</time>
      </trkpt>
      <trkpt lat="43.72051" lon="1.46598">
        <ele>170.29064941406</ele>
        <time>2014-01-04T15:07:15Z</time>
      </trkpt>
      <trkpt lat="43.72042" lon="1.46597">
        <ele>170.29064941406</ele>
        <time>2014-01-04T15:07:19Z</time>
      </trkpt>
      <trkpt lat="43.72031" lon="1.46595">
        <ele>171.25207519531</ele>
        <time>2014-01-04T15:07:24Z</time>
      </trkpt>
      <trkpt lat="43.72019" lon="1.46593">
        <ele>171.73266601562</ele>
        <time>2014-01-04T15:07:29Z</time>
      </trkpt>
      <trkpt lat="43.72007" lon="1.46591">
        <ele>173.17468261719</ele>
        <time>2014-01-04T15:07:34Z</time>
      </trkpt>
      <trkpt lat="43.71993" lon="1.4659">
        <ele>174.13586425781</ele>
        <time>2014-01-04T15:07:40Z</time>
      </trkpt>
      <trkpt lat="43.71981" lon="1.4659">
        <ele>174.13586425781</ele>
        <time>2014-01-04T15:07:45Z</time>
      </trkpt>
      <trkpt lat="43.71969" lon="1.46587">
        <ele>173.6552734375</ele>
        <time>2014-01-04T15:07:50Z</time>
      </trkpt>
      <trkpt lat="43.71956" lon="1.46586">
        <ele>174.61657714844</ele>
        <time>2014-01-04T15:07:55Z</time>
      </trkpt>
      <trkpt lat="43.71943" lon="1.46583">
        <ele>175.57788085938</ele>
        <time>2014-01-04T15:08:01Z</time>
      </trkpt>
      <trkpt lat="43.71929" lon="1.4658">
        <ele>177.02001953125</ele>
        <time>2014-01-04T15:08:07Z</time>
      </trkpt>
      <trkpt lat="43.71915" lon="1.46576">
        <ele>178.4619140625</ele>
        <time>2014-01-04T15:08:13Z</time>
      </trkpt>
      <trkpt lat="43.71913" lon="1.46575">
        <ele>178.4619140625</ele>
        <time>2014-01-04T15:08:14Z</time>
      </trkpt>
      <trkpt lat="43.71903" lon="1.46572">
        <ele>177.98120117188</ele>
        <time>2014-01-04T15:08:18Z</time>
      </trkpt>
      <trkpt lat="43.71889" lon="1.46568">
        <ele>178.4619140625</ele>
        <time>2014-01-04T15:08:24Z</time>
      </trkpt>
      <trkpt lat="43.71885" lon="1.46566">
        <ele>178.4619140625</ele>
        <time>2014-01-04T15:08:26Z</time>
      </trkpt>
      <trkpt lat="43.71872" lon="1.46565">
        <ele>178.94262695312</ele>
        <time>2014-01-04T15:08:31Z</time>
      </trkpt>
      <trkpt lat="43.71862" lon="1.46561">
        <ele>178.94262695312</ele>
        <time>2014-01-04T15:08:35Z</time>
      </trkpt>
      <trkpt lat="43.71852" lon="1.46555">
        <ele>179.90380859375</ele>
        <time>2014-01-04T15:08:39Z</time>
      </trkpt>
      <trkpt lat="43.71842" lon="1.46551">
        <ele>180.865234375</ele>
        <time>2014-01-04T15:08:43Z</time>
      </trkpt>
      <trkpt lat="43.71828" lon="1.46543">
        <ele>181.34582519531</ele>
        <time>2014-01-04T15:08:49Z</time>
      </trkpt>
      <trkpt lat="43.71821" lon="1.46539">
        <ele>181.34582519531</ele>
        <time>2014-01-04T15:08:52Z</time>
      </trkpt>
      <trkpt lat="43.71809" lon="1.46534">
        <ele>180.38452148438</ele>
        <time>2014-01-04T15:08:57Z</time>
      </trkpt>
      <trkpt lat="43.71797" lon="1.46527">
        <ele>179.90380859375</ele>
        <time>2014-01-04T15:09:02Z</time>
      </trkpt>
      <trkpt lat="43.7179" lon="1.46525">
        <ele>179.42321777344</ele>
        <time>2014-01-04T15:09:05Z</time>
      </trkpt>
      <trkpt lat="43.71777" lon="1.46525">
        <ele>179.42321777344</ele>
        <time>2014-01-04T15:09:11Z</time>
      </trkpt>
      <trkpt lat="43.71761" lon="1.46534">
        <ele>179.90380859375</ele>
        <time>2014-01-04T15:09:17Z</time>
      </trkpt>
      <trkpt lat="43.71747" lon="1.46545">
        <ele>182.30712890625</ele>
        <time>2014-01-04T15:09:22Z</time>
      </trkpt>
      <trkpt lat="43.71734" lon="1.46555">
        <ele>183.7490234375</ele>
        <time>2014-01-04T15:09:27Z</time>
      </trkpt>
      <trkpt lat="43.71729" lon="1.46559">
        <ele>184.22985839844</ele>
        <time>2014-01-04T15:09:29Z</time>
      </trkpt>
      <trkpt lat="43.71716" lon="1.46553">
        <ele>183.7490234375</ele>
        <time>2014-01-04T15:09:34Z</time>
      </trkpt>
      <trkpt lat="43.71709" lon="1.46542">
        <ele>183.26843261719</ele>
        <time>2014-01-04T15:09:38Z</time>
      </trkpt>
      <trkpt lat="43.71707" lon="1.4654">
        <ele>182.78784179688</ele>
        <time>2014-01-04T15:09:39Z</time>
      </trkpt>
      <trkpt lat="43.71698" lon="1.46521">
        <ele>181.34582519531</ele>
        <time>2014-01-04T15:09:45Z</time>
      </trkpt>
      <trkpt lat="43.71692" lon="1.46505">
        <ele>181.34582519531</ele>
        <time>2014-01-04T15:09:50Z</time>
      </trkpt>
      <trkpt lat="43.71685" lon="1.46486">
        <ele>181.34582519531</ele>
        <time>2014-01-04T15:09:56Z</time>
      </trkpt>
      <trkpt lat="43.71679" lon="1.46472">
        <ele>181.34582519531</ele>
        <time>2014-01-04T15:10:01Z</time>
      </trkpt>
      <trkpt lat="43.71671" lon="1.46456">
        <ele>180.865234375</ele>
        <time>2014-01-04T15:10:07Z</time>
      </trkpt>
      <trkpt lat="43.71665" lon="1.46449">
        <ele>179.90380859375</ele>
        <time>2014-01-04T15:10:12Z</time>
      </trkpt>
      <trkpt lat="43.7166" lon="1.46438">
        <ele>178.4619140625</ele>
        <time>2014-01-04T15:10:18Z</time>
      </trkpt>
      <trkpt lat="43.71655" lon="1.46432">
        <ele>177.50061035156</ele>
        <time>2014-01-04T15:10:23Z</time>
      </trkpt>
      <trkpt lat="43.7165" lon="1.46427">
        <ele>174.61657714844</ele>
        <time>2014-01-04T15:10:28Z</time>
      </trkpt>
      <trkpt lat="43.71646" lon="1.46427">
        <ele>172.21325683594</ele>
        <time>2014-01-04T15:10:33Z</time>
      </trkpt>
      <trkpt lat="43.71645" lon="1.46428">
        <ele>172.21325683594</ele>
        <time>2014-01-04T15:10:34Z</time>
      </trkpt>
      <trkpt lat="43.71635" lon="1.46434">
        <ele>171.73266601562</ele>
        <time>2014-01-04T15:10:40Z</time>
      </trkpt>
      <trkpt lat="43.71626" lon="1.46438">
        <ele>170.77136230469</ele>
        <time>2014-01-04T15:10:45Z</time>
      </trkpt>
      <trkpt lat="43.71621" lon="1.46444">
        <ele>169.81005859375</ele>
        <time>2014-01-04T15:10:49Z</time>
      </trkpt>
      <trkpt lat="43.71614" lon="1.46446">
        <ele>170.29064941406</ele>
        <time>2014-01-04T15:10:54Z</time>
      </trkpt>
      <trkpt lat="43.71612" lon="1.46447">
        <ele>169.81005859375</ele>
        <time>2014-01-04T15:10:56Z</time>
      </trkpt>
      <trkpt lat="43.71601" lon="1.46458">
        <ele>169.32946777344</ele>
        <time>2014-01-04T15:11:03Z</time>
      </trkpt>
      <trkpt lat="43.71593" lon="1.46467">
        <ele>169.32946777344</ele>
        <time>2014-01-04T15:11:07Z</time>
      </trkpt>
      <trkpt lat="43.71583" lon="1.46478">
        <ele>169.32946777344</ele>
        <time>2014-01-04T15:11:12Z</time>
      </trkpt>
      <trkpt lat="43.71573" lon="1.46491">
        <ele>170.77136230469</ele>
        <time>2014-01-04T15:11:17Z</time>
      </trkpt>
      <trkpt lat="43.71561" lon="1.46507">
        <ele>172.21325683594</ele>
        <time>2014-01-04T15:11:23Z</time>
      </trkpt>
      <trkpt lat="43.7155" lon="1.46523">
        <ele>174.13586425781</ele>
        <time>2014-01-04T15:11:28Z</time>
      </trkpt>
      <trkpt lat="43.7154" lon="1.46536">
        <ele>175.09729003906</ele>
        <time>2014-01-04T15:11:33Z</time>
      </trkpt>
      <trkpt lat="43.71532" lon="1.4655">
        <ele>176.53930664062</ele>
        <time>2014-01-04T15:11:38Z</time>
      </trkpt>
      <trkpt lat="43.71523" lon="1.46561">
        <ele>176.53930664062</ele>
        <time>2014-01-04T15:11:43Z</time>
      </trkpt>
      <trkpt lat="43.71513" lon="1.46574">
        <ele>176.53930664062</ele>
        <time>2014-01-04T15:11:49Z</time>
      </trkpt>
      <trkpt lat="43.71504" lon="1.4659">
        <ele>177.02001953125</ele>
        <time>2014-01-04T15:11:55Z</time>
      </trkpt>
      <trkpt lat="43.71498" lon="1.46606">
        <ele>177.50061035156</ele>
        <time>2014-01-04T15:12:00Z</time>
      </trkpt>
      <trkpt lat="43.71495" lon="1.46615">
        <ele>177.98120117188</ele>
        <time>2014-01-04T15:12:03Z</time>
      </trkpt>
      <trkpt lat="43.71481" lon="1.46629">
        <ele>177.98120117188</ele>
        <time>2014-01-04T15:12:09Z</time>
      </trkpt>
      <trkpt lat="43.71468" lon="1.4663">
        <ele>176.53930664062</ele>
        <time>2014-01-04T15:12:14Z</time>
      </trkpt>
      <trkpt lat="43.71459" lon="1.46617">
        <ele>176.05859375</ele>
        <time>2014-01-04T15:12:19Z</time>
      </trkpt>
      <trkpt lat="43.71457" lon="1.4661">
        <ele>176.05859375</ele>
        <time>2014-01-04T15:12:21Z</time>
      </trkpt>
      <trkpt lat="43.71452" lon="1.46593">
        <ele>177.02001953125</ele>
        <time>2014-01-04T15:12:26Z</time>
      </trkpt>
      <trkpt lat="43.71449" lon="1.46575">
        <ele>177.50061035156</ele>
        <time>2014-01-04T15:12:31Z</time>
      </trkpt>
      <trkpt lat="43.71445" lon="1.46561">
        <ele>178.4619140625</ele>
        <time>2014-01-04T15:12:36Z</time>
      </trkpt>
      <trkpt lat="43.7144" lon="1.46547">
        <ele>179.42321777344</ele>
        <time>2014-01-04T15:12:40Z</time>
      </trkpt>
      <trkpt lat="43.71437" lon="1.4653">
        <ele>178.4619140625</ele>
        <time>2014-01-04T15:12:46Z</time>
      </trkpt>
      <trkpt lat="43.71434" lon="1.46515">
        <ele>177.98120117188</ele>
        <time>2014-01-04T15:12:51Z</time>
      </trkpt>
      <trkpt lat="43.71432" lon="1.46499">
        <ele>177.02001953125</ele>
        <time>2014-01-04T15:12:56Z</time>
      </trkpt>
      <trkpt lat="43.71429" lon="1.46482">
        <ele>179.42321777344</ele>
        <time>2014-01-04T15:13:01Z</time>
      </trkpt>
      <trkpt lat="43.71425" lon="1.46464">
        <ele>181.34582519531</ele>
        <time>2014-01-04T15:13:06Z</time>
      </trkpt>
      <trkpt lat="43.7142" lon="1.46442">
        <ele>184.22985839844</ele>
        <time>2014-01-04T15:13:12Z</time>
      </trkpt>
      <trkpt lat="43.71414" lon="1.46423">
        <ele>185.19116210938</ele>
        <time>2014-01-04T15:13:18Z</time>
      </trkpt>
      <trkpt lat="43.7141" lon="1.4641">
        <ele>183.26843261719</ele>
        <time>2014-01-04T15:13:22Z</time>
      </trkpt>
      <trkpt lat="43.71407" lon="1.46397">
        <ele>183.26843261719</ele>
        <time>2014-01-04T15:13:26Z</time>
      </trkpt>
      <trkpt lat="43.71404" lon="1.46382">
        <ele>182.78784179688</ele>
        <time>2014-01-04T15:13:31Z</time>
      </trkpt>
      <trkpt lat="43.71403" lon="1.46378">
        <ele>182.78784179688</ele>
        <time>2014-01-04T15:13:32Z</time>
      </trkpt>
      <trkpt lat="43.714" lon="1.46362">
        <ele>183.26843261719</ele>
        <time>2014-01-04T15:13:37Z</time>
      </trkpt>
      <trkpt lat="43.71394" lon="1.46336">
        <ele>184.71057128906</ele>
        <time>2014-01-04T15:13:44Z</time>
      </trkpt>
      <trkpt lat="43.71389" lon="1.46319">
        <ele>185.19116210938</ele>
        <time>2014-01-04T15:13:49Z</time>
      </trkpt>
      <trkpt lat="43.71383" lon="1.46302">
        <ele>185.67175292969</ele>
        <time>2014-01-04T15:13:54Z</time>
      </trkpt>
      <trkpt lat="43.7138" lon="1.46289">
        <ele>182.78784179688</ele>
        <time>2014-01-04T15:13:59Z</time>
      </trkpt>
      <trkpt lat="43.71379" lon="1.46281">
        <ele>181.82641601562</ele>
        <time>2014-01-04T15:14:02Z</time>
      </trkpt>
      <trkpt lat="43.71385" lon="1.46267">
        <ele>179.90380859375</ele>
        <time>2014-01-04T15:14:07Z</time>
      </trkpt>
      <trkpt lat="43.71387" lon="1.46264">
        <ele>180.38452148438</ele>
        <time>2014-01-04T15:14:08Z</time>
      </trkpt>
      <trkpt lat="43.71402" lon="1.46257">
        <ele>179.42321777344</ele>
        <time>2014-01-04T15:14:14Z</time>
      </trkpt>
      <trkpt lat="43.71415" lon="1.46256">
        <ele>178.94262695312</ele>
        <time>2014-01-04T15:14:19Z</time>
      </trkpt>
      <trkpt lat="43.71416" lon="1.46245">
        <ele>179.90380859375</ele>
        <time>2014-01-04T15:14:23Z</time>
      </trkpt>
      <trkpt lat="43.71409" lon="1.46234">
        <ele>180.865234375</ele>
        <time>2014-01-04T15:14:27Z</time>
      </trkpt>
      <trkpt lat="43.714" lon="1.46218">
        <ele>181.34582519531</ele>
        <time>2014-01-04T15:14:32Z</time>
      </trkpt>
      <trkpt lat="43.71392" lon="1.46204">
        <ele>181.34582519531</ele>
        <time>2014-01-04T15:14:37Z</time>
      </trkpt>
      <trkpt lat="43.71385" lon="1.4619">
        <ele>181.34582519531</ele>
        <time>2014-01-04T15:14:42Z</time>
      </trkpt>
      <trkpt lat="43.71376" lon="1.46177">
        <ele>181.82641601562</ele>
        <time>2014-01-04T15:14:47Z</time>
      </trkpt>
      <trkpt lat="43.71368" lon="1.46156">
        <ele>183.26843261719</ele>
        <time>2014-01-04T15:14:54Z</time>
      </trkpt>
      <trkpt lat="43.7136" lon="1.46138">
        <ele>183.26843261719</ele>
        <time>2014-01-04T15:15:00Z</time>
      </trkpt>
      <trkpt lat="43.71352" lon="1.4612">
        <ele>182.78784179688</ele>
        <time>2014-01-04T15:15:06Z</time>
      </trkpt>
      <trkpt lat="43.71346" lon="1.46101">
        <ele>181.82641601562</ele>
        <time>2014-01-04T15:15:12Z</time>
      </trkpt>
      <trkpt lat="43.71341" lon="1.46086">
        <ele>180.865234375</ele>
        <time>2014-01-04T15:15:17Z</time>
      </trkpt>
      <trkpt lat="43.71337" lon="1.46076">
        <ele>179.90380859375</ele>
        <time>2014-01-04T15:15:21Z</time>
      </trkpt>
      <trkpt lat="43.71332" lon="1.46066">
        <ele>179.90380859375</ele>
        <time>2014-01-04T15:15:25Z</time>
      </trkpt>
      <trkpt lat="43.7132" lon="1.46056">
        <ele>179.42321777344</ele>
        <time>2014-01-04T15:15:31Z</time>
      </trkpt>
      <trkpt lat="43.71315" lon="1.4605">
        <ele>179.42321777344</ele>
        <time>2014-01-04T15:15:34Z</time>
      </trkpt>
      <trkpt lat="43.71308" lon="1.46046">
        <ele>179.42321777344</ele>
        <time>2014-01-04T15:15:37Z</time>
      </trkpt>
      <trkpt lat="43.71301" lon="1.46041">
        <ele>178.4619140625</ele>
        <time>2014-01-04T15:15:41Z</time>
      </trkpt>
      <trkpt lat="43.7129" lon="1.46036">
        <ele>177.98120117188</ele>
        <time>2014-01-04T15:15:46Z</time>
      </trkpt>
      <trkpt lat="43.71278" lon="1.46028">
        <ele>178.4619140625</ele>
        <time>2014-01-04T15:15:52Z</time>
      </trkpt>
      <trkpt lat="43.71268" lon="1.46023">
        <ele>179.90380859375</ele>
        <time>2014-01-04T15:15:57Z</time>
      </trkpt>
      <trkpt lat="43.71266" lon="1.46023">
        <ele>179.90380859375</ele>
        <time>2014-01-04T15:15:58Z</time>
      </trkpt>
      <trkpt lat="43.71254" lon="1.46016">
        <ele>179.90380859375</ele>
        <time>2014-01-04T15:16:04Z</time>
      </trkpt>
      <trkpt lat="43.7125" lon="1.46016">
        <ele>179.42321777344</ele>
        <time>2014-01-04T15:16:06Z</time>
      </trkpt>
      <trkpt lat="43.71246" lon="1.46015">
        <ele>179.42321777344</ele>
        <time>2014-01-04T15:16:08Z</time>
      </trkpt>
      <trkpt lat="43.71237" lon="1.46015">
        <ele>178.94262695312</ele>
        <time>2014-01-04T15:16:12Z</time>
      </trkpt>
      <trkpt lat="43.71224" lon="1.46015">
        <ele>179.42321777344</ele>
        <time>2014-01-04T15:16:18Z</time>
      </trkpt>
      <trkpt lat="43.71222" lon="1.46015">
        <ele>179.42321777344</ele>
        <time>2014-01-04T15:16:19Z</time>
      </trkpt>
      <trkpt lat="43.71217" lon="1.46014">
        <ele>178.94262695312</ele>
        <time>2014-01-04T15:16:21Z</time>
      </trkpt>
      <trkpt lat="43.71208" lon="1.46006">
        <ele>177.98120117188</ele>
        <time>2014-01-04T15:16:26Z</time>
      </trkpt>
      <trkpt lat="43.71201" lon="1.46">
        <ele>177.98120117188</ele>
        <time>2014-01-04T15:16:30Z</time>
      </trkpt>
      <trkpt lat="43.71193" lon="1.45998">
        <ele>178.94262695312</ele>
        <time>2014-01-04T15:16:34Z</time>
      </trkpt>
      <trkpt lat="43.71184" lon="1.46007">
        <ele>180.865234375</ele>
        <time>2014-01-04T15:16:38Z</time>
      </trkpt>
      <trkpt lat="43.71179" lon="1.46017">
        <ele>182.30712890625</ele>
        <time>2014-01-04T15:16:42Z</time>
      </trkpt>
      <trkpt lat="43.71175" lon="1.46026">
        <ele>183.26843261719</ele>
        <time>2014-01-04T15:16:45Z</time>
      </trkpt>
      <trkpt lat="43.71167" lon="1.46039">
        <ele>183.7490234375</ele>
        <time>2014-01-04T15:16:50Z</time>
      </trkpt>
      <trkpt lat="43.7116" lon="1.46054">
        <ele>184.71057128906</ele>
        <time>2014-01-04T15:16:55Z</time>
      </trkpt>
      <trkpt lat="43.7115" lon="1.46073">
        <ele>186.63317871094</ele>
        <time>2014-01-04T15:17:02Z</time>
      </trkpt>
      <trkpt lat="43.71142" lon="1.46087">
        <ele>187.59436035156</ele>
        <time>2014-01-04T15:17:07Z</time>
      </trkpt>
      <trkpt lat="43.71133" lon="1.46102">
        <ele>187.59436035156</ele>
        <time>2014-01-04T15:17:13Z</time>
      </trkpt>
      <trkpt lat="43.71124" lon="1.46117">
        <ele>187.59436035156</ele>
        <time>2014-01-04T15:17:19Z</time>
      </trkpt>
      <trkpt lat="43.71119" lon="1.46128">
        <ele>187.59436035156</ele>
        <time>2014-01-04T15:17:23Z</time>
      </trkpt>
      <trkpt lat="43.71112" lon="1.46141">
        <ele>188.07507324219</ele>
        <time>2014-01-04T15:17:28Z</time>
      </trkpt>
      <trkpt lat="43.71102" lon="1.46152">
        <ele>188.55578613281</ele>
        <time>2014-01-04T15:17:33Z</time>
      </trkpt>
      <trkpt lat="43.71093" lon="1.46165">
        <ele>188.55578613281</ele>
        <time>2014-01-04T15:17:38Z</time>
      </trkpt>
      <trkpt lat="43.71083" lon="1.4618">
        <ele>189.03637695312</ele>
        <time>2014-01-04T15:17:44Z</time>
      </trkpt>
      <trkpt lat="43.71074" lon="1.46192">
        <ele>189.03637695312</ele>
        <time>2014-01-04T15:17:49Z</time>
      </trkpt>
      <trkpt lat="43.71064" lon="1.46205">
        <ele>188.55578613281</ele>
        <time>2014-01-04T15:17:54Z</time>
      </trkpt>
      <trkpt lat="43.71055" lon="1.46218">
        <ele>189.51696777344</ele>
        <time>2014-01-04T15:17:59Z</time>
      </trkpt>
      <trkpt lat="43.71047" lon="1.46233">
        <ele>189.99768066406</ele>
        <time>2014-01-04T15:18:04Z</time>
      </trkpt>
      <trkpt lat="43.71039" lon="1.46246">
        <ele>190.47839355469</ele>
        <time>2014-01-04T15:18:09Z</time>
      </trkpt>
      <trkpt lat="43.71027" lon="1.46262">
        <ele>189.51696777344</ele>
        <time>2014-01-04T15:18:16Z</time>
      </trkpt>
      <trkpt lat="43.71019" lon="1.46274">
        <ele>189.51696777344</ele>
        <time>2014-01-04T15:18:21Z</time>
      </trkpt>
      <trkpt lat="43.71008" lon="1.46283">
        <ele>189.51696777344</ele>
        <time>2014-01-04T15:18:26Z</time>
      </trkpt>
      <trkpt lat="43.71" lon="1.46269">
        <ele>189.03637695312</ele>
        <time>2014-01-04T15:18:31Z</time>
      </trkpt>
      <trkpt lat="43.70994" lon="1.4625">
        <ele>188.55578613281</ele>
        <time>2014-01-04T15:18:36Z</time>
      </trkpt>
      <trkpt lat="43.70987" lon="1.46231">
        <ele>188.55578613281</ele>
        <time>2014-01-04T15:18:42Z</time>
      </trkpt>
      <trkpt lat="43.70983" lon="1.46218">
        <ele>188.07507324219</ele>
        <time>2014-01-04T15:18:46Z</time>
      </trkpt>
      <trkpt lat="43.70979" lon="1.46202">
        <ele>187.59436035156</ele>
        <time>2014-01-04T15:18:51Z</time>
      </trkpt>
      <trkpt lat="43.70975" lon="1.46189">
        <ele>189.51696777344</ele>
        <time>2014-01-04T15:18:55Z</time>
      </trkpt>
      <trkpt lat="43.70969" lon="1.46173">
        <ele>190.47839355469</ele>
        <time>2014-01-04T15:19:00Z</time>
      </trkpt>
      <trkpt lat="43.70964" lon="1.46158">
        <ele>190.958984375</ele>
        <time>2014-01-04T15:19:05Z</time>
      </trkpt>
      <trkpt lat="43.70962" lon="1.46148">
        <ele>192.40112304688</ele>
        <time>2014-01-04T15:19:08Z</time>
      </trkpt>
      <trkpt lat="43.70958" lon="1.46136">
        <ele>193.84301757812</ele>
        <time>2014-01-04T15:19:12Z</time>
      </trkpt>
      <trkpt lat="43.70953" lon="1.4612">
        <ele>195.28491210938</ele>
        <time>2014-01-04T15:19:17Z</time>
      </trkpt>
      <trkpt lat="43.70946" lon="1.46101">
        <ele>196.72692871094</ele>
        <time>2014-01-04T15:19:23Z</time>
      </trkpt>
      <trkpt lat="43.70939" lon="1.46086">
        <ele>200.09167480469</ele>
        <time>2014-01-04T15:19:28Z</time>
      </trkpt>
      <trkpt lat="43.70936" lon="1.46084">
        <ele>199.13012695312</ele>
        <time>2014-01-04T15:19:30Z</time>
      </trkpt>
      <trkpt lat="43.70925" lon="1.46097">
        <ele>197.68823242188</ele>
        <time>2014-01-04T15:19:36Z</time>
      </trkpt>
      <trkpt lat="43.70918" lon="1.46109">
        <ele>198.64953613281</ele>
        <time>2014-01-04T15:19:40Z</time>
      </trkpt>
      <trkpt lat="43.70913" lon="1.46116">
        <ele>198.64953613281</ele>
        <time>2014-01-04T15:19:43Z</time>
      </trkpt>
      <trkpt lat="43.70903" lon="1.46131">
        <ele>199.13012695312</ele>
        <time>2014-01-04T15:19:49Z</time>
      </trkpt>
      <trkpt lat="43.70893" lon="1.46143">
        <ele>198.64953613281</ele>
        <time>2014-01-04T15:19:55Z</time>
      </trkpt>
      <trkpt lat="43.70882" lon="1.4615">
        <ele>197.68823242188</ele>
        <time>2014-01-04T15:20:00Z</time>
      </trkpt>
      <trkpt lat="43.7087" lon="1.46153">
        <ele>198.64953613281</ele>
        <time>2014-01-04T15:20:05Z</time>
      </trkpt>
      <trkpt lat="43.70858" lon="1.46152">
        <ele>200.09167480469</ele>
        <time>2014-01-04T15:20:10Z</time>
      </trkpt>
      <trkpt lat="43.70849" lon="1.46148">
        <ele>200.09167480469</ele>
        <time>2014-01-04T15:20:14Z</time>
      </trkpt>
      <trkpt lat="43.70841" lon="1.46141">
        <ele>200.572265625</ele>
        <time>2014-01-04T15:20:19Z</time>
      </trkpt>
      <trkpt lat="43.70838" lon="1.46141">
        <ele>201.53356933594</ele>
        <time>2014-01-04T15:20:23Z</time>
      </trkpt>
      <trkpt lat="43.70832" lon="1.46133">
        <ele>201.05285644531</ele>
        <time>2014-01-04T15:20:31Z</time>
      </trkpt>
      <trkpt lat="43.70823" lon="1.46123">
        <ele>202.01428222656</ele>
        <time>2014-01-04T15:20:36Z</time>
      </trkpt>
      <trkpt lat="43.70815" lon="1.46113">
        <ele>202.49487304688</ele>
        <time>2014-01-04T15:20:40Z</time>
      </trkpt>
      <trkpt lat="43.70811" lon="1.4611">
        <ele>202.97546386719</ele>
        <time>2014-01-04T15:20:42Z</time>
      </trkpt>
      <trkpt lat="43.70805" lon="1.46106">
        <ele>202.49487304688</ele>
        <time>2014-01-04T15:20:45Z</time>
      </trkpt>
      <trkpt lat="43.70794" lon="1.461">
        <ele>202.01428222656</ele>
        <time>2014-01-04T15:20:50Z</time>
      </trkpt>
      <trkpt lat="43.70791" lon="1.46099">
        <ele>202.01428222656</ele>
        <time>2014-01-04T15:20:51Z</time>
      </trkpt>
      <trkpt lat="43.70775" lon="1.4609">
        <ele>201.05285644531</ele>
        <time>2014-01-04T15:20:58Z</time>
      </trkpt>
      <trkpt lat="43.7077" lon="1.46089">
        <ele>200.572265625</ele>
        <time>2014-01-04T15:21:00Z</time>
      </trkpt>
      <trkpt lat="43.70757" lon="1.46085">
        <ele>202.01428222656</ele>
        <time>2014-01-04T15:21:05Z</time>
      </trkpt>
      <trkpt lat="43.70744" lon="1.4608">
        <ele>203.45617675781</ele>
        <time>2014-01-04T15:21:10Z</time>
      </trkpt>
      <trkpt lat="43.70737" lon="1.46076">
        <ele>203.45617675781</ele>
        <time>2014-01-04T15:21:13Z</time>
      </trkpt>
      <trkpt lat="43.70724" lon="1.4607">
        <ele>202.97546386719</ele>
        <time>2014-01-04T15:21:19Z</time>
      </trkpt>
      <trkpt lat="43.70712" lon="1.46082">
        <ele>205.37878417969</ele>
        <time>2014-01-04T15:21:24Z</time>
      </trkpt>
      <trkpt lat="43.70702" lon="1.46094">
        <ele>206.34008789062</ele>
        <time>2014-01-04T15:21:29Z</time>
      </trkpt>
      <trkpt lat="43.70693" lon="1.46106">
        <ele>209.22412109375</ele>
        <time>2014-01-04T15:21:33Z</time>
      </trkpt>
      <trkpt lat="43.70681" lon="1.46118">
        <ele>211.62744140625</ele>
        <time>2014-01-04T15:21:38Z</time>
      </trkpt>
      <trkpt lat="43.70671" lon="1.46128">
        <ele>212.58862304688</ele>
        <time>2014-01-04T15:21:42Z</time>
      </trkpt>
      <trkpt lat="43.70659" lon="1.46142">
        <ele>213.55004882812</ele>
        <time>2014-01-04T15:21:48Z</time>
      </trkpt>
      <trkpt lat="43.70648" lon="1.46153">
        <ele>214.03063964844</ele>
        <time>2014-01-04T15:21:53Z</time>
      </trkpt>
      <trkpt lat="43.70638" lon="1.4616">
        <ele>213.0693359375</ele>
        <time>2014-01-04T15:21:58Z</time>
      </trkpt>
      <trkpt lat="43.70632" lon="1.46166">
        <ele>212.10803222656</ele>
        <time>2014-01-04T15:22:01Z</time>
      </trkpt>
      <trkpt lat="43.70623" lon="1.46171">
        <ele>211.14672851562</ele>
        <time>2014-01-04T15:22:05Z</time>
      </trkpt>
      <trkpt lat="43.70618" lon="1.46182">
        <ele>210.18542480469</ele>
        <time>2014-01-04T15:22:11Z</time>
      </trkpt>
      <trkpt lat="43.70615" lon="1.46195">
        <ele>207.30139160156</ele>
        <time>2014-01-04T15:22:17Z</time>
      </trkpt>
      <trkpt lat="43.70615" lon="1.46201">
        <ele>203.93688964844</ele>
        <time>2014-01-04T15:22:20Z</time>
      </trkpt>
      <trkpt lat="43.70612" lon="1.46206">
        <ele>200.572265625</ele>
        <time>2014-01-04T15:22:25Z</time>
      </trkpt>
      <trkpt lat="43.70611" lon="1.46208">
        <ele>200.572265625</ele>
        <time>2014-01-04T15:22:28Z</time>
      </trkpt>
      <trkpt lat="43.70606" lon="1.46217">
        <ele>200.572265625</ele>
        <time>2014-01-04T15:22:31Z</time>
      </trkpt>
      <trkpt lat="43.70601" lon="1.46229">
        <ele>200.09167480469</ele>
        <time>2014-01-04T15:22:35Z</time>
      </trkpt>
      <trkpt lat="43.70598" lon="1.46238">
        <ele>200.09167480469</ele>
        <time>2014-01-04T15:22:38Z</time>
      </trkpt>
      <trkpt lat="43.70591" lon="1.46252">
        <ele>200.572265625</ele>
        <time>2014-01-04T15:22:43Z</time>
      </trkpt>
      <trkpt lat="43.70581" lon="1.46261">
        <ele>203.93688964844</ele>
        <time>2014-01-04T15:22:47Z</time>
      </trkpt>
      <trkpt lat="43.70576" lon="1.46264">
        <ele>204.41748046875</ele>
        <time>2014-01-04T15:22:49Z</time>
      </trkpt>
      <trkpt lat="43.70575" lon="1.46279">
        <ele>203.93688964844</ele>
        <time>2014-01-04T15:22:54Z</time>
      </trkpt>
      <trkpt lat="43.70577" lon="1.46284">
        <ele>203.45617675781</ele>
        <time>2014-01-04T15:22:56Z</time>
      </trkpt>
      <trkpt lat="43.70578" lon="1.46284">
        <ele>202.97546386719</ele>
        <time>2014-01-04T15:22:59Z</time>
      </trkpt>
    </trkseg>
  </trk>
</gpx>